﻿<?xml version="1.0" encoding="UTF-8" standalone="no" ?>
<gpx xmlns="http://www.topografix.com/GPX/1/1" creator="CompeGPS" version="1.1" xmlns:xsi="http://www.w3.org/2001/XMLSchema-instance" xsi:schemaLocation="http://www.topografix.com/GPX/1/1 http://www.topografix.com/GPX/1/1/gpx.xsd http://www.garmin.com/xmlschemas/GpxExtensions/v3 http://www.garmin.com/xmlschemas/GpxExtensionsv3.xsd http://www.garmin.com/xmlschemas/TrackPointExtension/v1 http://www.garmin.com/xmlschemas/TrackPointExtensionv1.xsd" xmlns:gpxtpx="http://www.garmin.com/xmlschemas/TrackPointExtension/v1">
  <metadata>
    <link href="http://www.compegps.com">
      <text>CompeGPS TEAM, SL</text>
    </link>
    <time>2013-01-09T12:40:30Z</time>
    <bounds maxlat="42.731349" maxlon="1.982208" minlat="42.711166" minlon="1.964761"/>
  </metadata>
<wpt lat="42.727191" lon="1.964789">
<ele>1685</ele>
<name>Parking</name>
</wpt>
<wpt lat="42.731349" lon="1.979198">
<ele>1810</ele>
<name>Teleski de Regalecia </name>
</wpt>
<wpt lat="42.711166" lon="1.977042">
<ele>2170</ele>
<name>Col Coumeille de l_Ours</name>
</wpt>
<wpt lat="42.713869" lon="1.970758">
<ele>2364</ele>
<name>Pic du Tarbesou</name>
</wpt>
  <trk>
    <name>Pic de Tarbesou</name>
    <trkseg>
      <trkpt lat="42.727191" lon="1.964789">
        <ele>1685.3</ele>
        <time>2013-01-08T08:19:01Z</time>
        <name>Parking</name>
      </trkpt>
      <trkpt lat="42.727199" lon="1.964895">
        <ele>1685.8</ele>
        <time>2013-01-08T08:19:18Z</time>
      </trkpt>
      <trkpt lat="42.727202" lon="1.965025">
        <ele>1685.8</ele>
        <time>2013-01-08T08:19:29Z</time>
      </trkpt>
      <trkpt lat="42.727242" lon="1.965167">
        <ele>1728.2</ele>
        <time>2013-01-08T08:19:38Z</time>
      </trkpt>
      <trkpt lat="42.727354" lon="1.965272">
        <ele>1733.6</ele>
        <time>2013-01-08T08:19:48Z</time>
      </trkpt>
      <trkpt lat="42.727414" lon="1.965379">
        <ele>1736.8</ele>
        <time>2013-01-08T08:19:57Z</time>
      </trkpt>
      <trkpt lat="42.727465" lon="1.965491">
        <ele>1739.4</ele>
        <time>2013-01-08T08:20:06Z</time>
      </trkpt>
      <trkpt lat="42.727506" lon="1.965594">
        <ele>1741.7</ele>
        <time>2013-01-08T08:20:15Z</time>
      </trkpt>
      <trkpt lat="42.727571" lon="1.965734">
        <ele>1745.1</ele>
        <time>2013-01-08T08:20:24Z</time>
      </trkpt>
      <trkpt lat="42.727615" lon="1.965872">
        <ele>1747.1</ele>
        <time>2013-01-08T08:20:33Z</time>
      </trkpt>
      <trkpt lat="42.727661" lon="1.966009">
        <ele>1748.0</ele>
        <time>2013-01-08T08:20:43Z</time>
      </trkpt>
      <trkpt lat="42.727702" lon="1.966124">
        <ele>1748.9</ele>
        <time>2013-01-08T08:20:56Z</time>
      </trkpt>
      <trkpt lat="42.727751" lon="1.966229">
        <ele>1750.4</ele>
        <time>2013-01-08T08:21:06Z</time>
      </trkpt>
      <trkpt lat="42.727803" lon="1.966373">
        <ele>1751.8</ele>
        <time>2013-01-08T08:21:15Z</time>
      </trkpt>
      <trkpt lat="42.727849" lon="1.966507">
        <ele>1753.1</ele>
        <time>2013-01-08T08:21:24Z</time>
      </trkpt>
      <trkpt lat="42.727877" lon="1.966637">
        <ele>1753.7</ele>
        <time>2013-01-08T08:21:33Z</time>
      </trkpt>
      <trkpt lat="42.727916" lon="1.966752">
        <ele>1755.0</ele>
        <time>2013-01-08T08:21:42Z</time>
      </trkpt>
      <trkpt lat="42.727979" lon="1.966873">
        <ele>1757.5</ele>
        <time>2013-01-08T08:21:51Z</time>
      </trkpt>
      <trkpt lat="42.728015" lon="1.966959">
        <ele>1759.0</ele>
        <time>2013-01-08T08:22:00Z</time>
      </trkpt>
      <trkpt lat="42.728075" lon="1.967107">
        <ele>1761.5</ele>
        <time>2013-01-08T08:22:09Z</time>
      </trkpt>
      <trkpt lat="42.728116" lon="1.967253">
        <ele>1762.9</ele>
        <time>2013-01-08T08:22:19Z</time>
      </trkpt>
      <trkpt lat="42.728175" lon="1.967421">
        <ele>1765.4</ele>
        <time>2013-01-08T08:22:29Z</time>
      </trkpt>
      <trkpt lat="42.728229" lon="1.967543">
        <ele>1767.6</ele>
        <time>2013-01-08T08:22:40Z</time>
      </trkpt>
      <trkpt lat="42.728305" lon="1.967734">
        <ele>1769.8</ele>
        <time>2013-01-08T08:22:49Z</time>
      </trkpt>
      <trkpt lat="42.728362" lon="1.967870">
        <ele>1771.5</ele>
        <time>2013-01-08T08:22:59Z</time>
      </trkpt>
      <trkpt lat="42.728408" lon="1.968005">
        <ele>1772.8</ele>
        <time>2013-01-08T08:23:09Z</time>
      </trkpt>
      <trkpt lat="42.728475" lon="1.968173">
        <ele>1775.1</ele>
        <time>2013-01-08T08:23:18Z</time>
      </trkpt>
      <trkpt lat="42.728516" lon="1.968318">
        <ele>1775.9</ele>
        <time>2013-01-08T08:23:28Z</time>
      </trkpt>
      <trkpt lat="42.728605" lon="1.968578">
        <ele>1779.1</ele>
        <time>2013-01-08T08:24:38Z</time>
      </trkpt>
      <trkpt lat="42.728702" lon="1.968856">
        <ele>1781.9</ele>
        <time>2013-01-08T08:24:49Z</time>
      </trkpt>
      <trkpt lat="42.728809" lon="1.969081">
        <ele>1786.0</ele>
        <time>2013-01-08T08:25:01Z</time>
      </trkpt>
      <trkpt lat="42.728879" lon="1.969295">
        <ele>1787.3</ele>
        <time>2013-01-08T08:25:12Z</time>
      </trkpt>
      <trkpt lat="42.728979" lon="1.969482">
        <ele>1789.9</ele>
        <time>2013-01-08T08:25:22Z</time>
      </trkpt>
      <trkpt lat="42.729066" lon="1.969669">
        <ele>1791.0</ele>
        <time>2013-01-08T08:25:32Z</time>
      </trkpt>
      <trkpt lat="42.729157" lon="1.969870">
        <ele>1791.2</ele>
        <time>2013-01-08T08:25:42Z</time>
      </trkpt>
      <trkpt lat="42.729226" lon="1.970040">
        <ele>1791.4</ele>
        <time>2013-01-08T08:25:52Z</time>
      </trkpt>
      <trkpt lat="42.729314" lon="1.970288">
        <ele>1792.6</ele>
        <time>2013-01-08T08:26:03Z</time>
      </trkpt>
      <trkpt lat="42.729406" lon="1.970499">
        <ele>1794.6</ele>
        <time>2013-01-08T08:27:16Z</time>
      </trkpt>
      <trkpt lat="42.729499" lon="1.970724">
        <ele>1796.4</ele>
        <time>2013-01-08T08:27:27Z</time>
      </trkpt>
      <trkpt lat="42.729579" lon="1.970941">
        <ele>1798.2</ele>
        <time>2013-01-08T08:27:38Z</time>
      </trkpt>
      <trkpt lat="42.729659" lon="1.971132">
        <ele>1800.6</ele>
        <time>2013-01-08T08:27:49Z</time>
      </trkpt>
      <trkpt lat="42.729711" lon="1.971295">
        <ele>1802.2</ele>
        <time>2013-01-08T08:28:01Z</time>
      </trkpt>
      <trkpt lat="42.729796" lon="1.971489">
        <ele>1804.9</ele>
        <time>2013-01-08T08:28:12Z</time>
      </trkpt>
      <trkpt lat="42.729896" lon="1.971591">
        <ele>1808.7</ele>
        <time>2013-01-08T08:28:23Z</time>
      </trkpt>
      <trkpt lat="42.729901" lon="1.971700">
        <ele>1808.7</ele>
        <time>2013-01-08T08:28:33Z</time>
      </trkpt>
      <trkpt lat="42.729841" lon="1.971904">
        <ele>1807.1</ele>
        <time>2013-01-08T08:28:44Z</time>
      </trkpt>
      <trkpt lat="42.729866" lon="1.972186">
        <ele>1810.0</ele>
        <time>2013-01-08T08:29:42Z</time>
      </trkpt>
      <trkpt lat="42.729886" lon="1.972428">
        <ele>1812.3</ele>
        <time>2013-01-08T08:29:54Z</time>
      </trkpt>
      <trkpt lat="42.729916" lon="1.972601">
        <ele>1814.4</ele>
        <time>2013-01-08T08:30:05Z</time>
      </trkpt>
      <trkpt lat="42.729941" lon="1.972727">
        <ele>1816.0</ele>
        <time>2013-01-08T08:30:15Z</time>
      </trkpt>
      <trkpt lat="42.729976" lon="1.972877">
        <ele>1817.9</ele>
        <time>2013-01-08T08:30:26Z</time>
      </trkpt>
      <trkpt lat="42.730016" lon="1.973050">
        <ele>1820.2</ele>
        <time>2013-01-08T08:30:36Z</time>
      </trkpt>
      <trkpt lat="42.730063" lon="1.973210">
        <ele>1823.5</ele>
        <time>2013-01-08T08:30:46Z</time>
      </trkpt>
      <trkpt lat="42.730091" lon="1.973329">
        <ele>1825.4</ele>
        <time>2013-01-08T08:30:56Z</time>
      </trkpt>
      <trkpt lat="42.730163" lon="1.973489">
        <ele>1829.7</ele>
        <time>2013-01-08T08:31:07Z</time>
      </trkpt>
      <trkpt lat="42.730216" lon="1.973659">
        <ele>1833.0</ele>
        <time>2013-01-08T08:31:17Z</time>
      </trkpt>
      <trkpt lat="42.730266" lon="1.973815">
        <ele>1836.0</ele>
        <time>2013-01-08T08:31:26Z</time>
      </trkpt>
      <trkpt lat="42.730326" lon="1.974060">
        <ele>1839.7</ele>
        <time>2013-01-08T08:34:05Z</time>
      </trkpt>
      <trkpt lat="42.730353" lon="1.974227">
        <ele>1841.5</ele>
        <time>2013-01-08T08:34:16Z</time>
      </trkpt>
      <trkpt lat="42.730378" lon="1.974431">
        <ele>1842.6</ele>
        <time>2013-01-08T08:34:27Z</time>
      </trkpt>
      <trkpt lat="42.730433" lon="1.974605">
        <ele>1846.1</ele>
        <time>2013-01-08T08:34:36Z</time>
      </trkpt>
      <trkpt lat="42.730438" lon="1.974775">
        <ele>1846.3</ele>
        <time>2013-01-08T08:34:46Z</time>
      </trkpt>
      <trkpt lat="42.730433" lon="1.974958">
        <ele>1845.7</ele>
        <time>2013-01-08T08:34:55Z</time>
      </trkpt>
      <trkpt lat="42.730411" lon="1.975101">
        <ele>1843.4</ele>
        <time>2013-01-08T08:35:04Z</time>
      </trkpt>
      <trkpt lat="42.730421" lon="1.975265">
        <ele>1843.1</ele>
        <time>2013-01-08T08:35:13Z</time>
      </trkpt>
      <trkpt lat="42.730423" lon="1.975367">
        <ele>1842.3</ele>
        <time>2013-01-08T08:35:24Z</time>
      </trkpt>
      <trkpt lat="42.730426" lon="1.975475">
        <ele>1841.8</ele>
        <time>2013-01-08T08:35:35Z</time>
      </trkpt>
      <trkpt lat="42.730448" lon="1.975642">
        <ele>1842.0</ele>
        <time>2013-01-08T08:35:45Z</time>
      </trkpt>
      <trkpt lat="42.730448" lon="1.975737">
        <ele>1841.3</ele>
        <time>2013-01-08T08:35:55Z</time>
      </trkpt>
      <trkpt lat="42.730485" lon="1.975836">
        <ele>1842.7</ele>
        <time>2013-01-08T08:36:04Z</time>
      </trkpt>
      <trkpt lat="42.730527" lon="1.975979">
        <ele>1843.6</ele>
        <time>2013-01-08T08:36:32Z</time>
      </trkpt>
      <trkpt lat="42.730553" lon="1.976123">
        <ele>1843.4</ele>
        <time>2013-01-08T08:36:41Z</time>
      </trkpt>
      <trkpt lat="42.730578" lon="1.976235">
        <ele>1790.6</ele>
        <time>2013-01-08T08:36:50Z</time>
      </trkpt>
      <trkpt lat="42.730612" lon="1.976357">
        <ele>1791.6</ele>
        <time>2013-01-08T08:37:00Z</time>
      </trkpt>
      <trkpt lat="42.730641" lon="1.976471">
        <ele>1792.0</ele>
        <time>2013-01-08T08:37:10Z</time>
      </trkpt>
      <trkpt lat="42.730680" lon="1.976605">
        <ele>1791.6</ele>
        <time>2013-01-08T08:37:19Z</time>
      </trkpt>
      <trkpt lat="42.730705" lon="1.976726">
        <ele>1792.5</ele>
        <time>2013-01-08T08:37:28Z</time>
      </trkpt>
      <trkpt lat="42.730728" lon="1.976846">
        <ele>1793.5</ele>
        <time>2013-01-08T08:37:37Z</time>
      </trkpt>
      <trkpt lat="42.730762" lon="1.976955">
        <ele>1794.0</ele>
        <time>2013-01-08T08:37:46Z</time>
      </trkpt>
      <trkpt lat="42.730788" lon="1.977069">
        <ele>1793.0</ele>
        <time>2013-01-08T08:37:55Z</time>
      </trkpt>
      <trkpt lat="42.730818" lon="1.977199">
        <ele>1795.4</ele>
        <time>2013-01-08T08:38:04Z</time>
      </trkpt>
      <trkpt lat="42.730844" lon="1.977333">
        <ele>1795.4</ele>
        <time>2013-01-08T08:38:13Z</time>
      </trkpt>
      <trkpt lat="42.730871" lon="1.977470">
        <ele>1796.4</ele>
        <time>2013-01-08T08:38:22Z</time>
      </trkpt>
      <trkpt lat="42.730902" lon="1.977597">
        <ele>1797.3</ele>
        <time>2013-01-08T08:38:31Z</time>
      </trkpt>
      <trkpt lat="42.730935" lon="1.977721">
        <ele>1797.8</ele>
        <time>2013-01-08T08:38:40Z</time>
      </trkpt>
      <trkpt lat="42.730969" lon="1.977848">
        <ele>1799.2</ele>
        <time>2013-01-08T08:38:49Z</time>
      </trkpt>
      <trkpt lat="42.731005" lon="1.977973">
        <ele>1799.7</ele>
        <time>2013-01-08T08:38:58Z</time>
      </trkpt>
      <trkpt lat="42.731049" lon="1.978091">
        <ele>1800.2</ele>
        <time>2013-01-08T08:39:07Z</time>
      </trkpt>
      <trkpt lat="42.731087" lon="1.978199">
        <ele>1801.2</ele>
        <time>2013-01-08T08:39:17Z</time>
      </trkpt>
      <trkpt lat="42.731137" lon="1.978318">
        <ele>1801.7</ele>
        <time>2013-01-08T08:39:26Z</time>
      </trkpt>
      <trkpt lat="42.731176" lon="1.978435">
        <ele>1802.1</ele>
        <time>2013-01-08T08:39:34Z</time>
      </trkpt>
      <trkpt lat="42.731212" lon="1.978548">
        <ele>1802.6</ele>
        <time>2013-01-08T08:39:43Z</time>
      </trkpt>
      <trkpt lat="42.731249" lon="1.978671">
        <ele>1804.1</ele>
        <time>2013-01-08T08:39:52Z</time>
      </trkpt>
      <trkpt lat="42.731290" lon="1.978785">
        <ele>1804.5</ele>
        <time>2013-01-08T08:40:01Z</time>
      </trkpt>
      <trkpt lat="42.731310" lon="1.978917">
        <ele>1806.0</ele>
        <time>2013-01-08T08:40:10Z</time>
      </trkpt>
      <trkpt lat="42.731329" lon="1.979060">
        <ele>1806.4</ele>
        <time>2013-01-08T08:40:19Z</time>
      </trkpt>
      <trkpt lat="42.731349" lon="1.979198">
        <ele>1808.4</ele>
        <time>2013-01-08T08:40:29Z</time>
        <name>Teleski de Regalecia </name>
      </trkpt>
      <trkpt lat="42.731336" lon="1.979331">
        <ele>1810.3</ele>
        <time>2013-01-08T08:40:39Z</time>
      </trkpt>
      <trkpt lat="42.731294" lon="1.979465">
        <ele>1811.7</ele>
        <time>2013-01-08T08:40:49Z</time>
      </trkpt>
      <trkpt lat="42.731247" lon="1.979580">
        <ele>1812.7</ele>
        <time>2013-01-08T08:40:59Z</time>
      </trkpt>
      <trkpt lat="42.731233" lon="1.979707">
        <ele>1815.6</ele>
        <time>2013-01-08T08:41:11Z</time>
      </trkpt>
      <trkpt lat="42.731207" lon="1.979837">
        <ele>1816.6</ele>
        <time>2013-01-08T08:41:22Z</time>
      </trkpt>
      <trkpt lat="42.731187" lon="1.979953">
        <ele>1818.5</ele>
        <time>2013-01-08T08:41:33Z</time>
      </trkpt>
      <trkpt lat="42.731156" lon="1.980078">
        <ele>1820.9</ele>
        <time>2013-01-08T08:41:49Z</time>
      </trkpt>
      <trkpt lat="42.731121" lon="1.980189">
        <ele>1823.3</ele>
        <time>2013-01-08T08:42:08Z</time>
      </trkpt>
      <trkpt lat="42.731088" lon="1.980279">
        <ele>1827.1</ele>
        <time>2013-01-08T08:42:31Z</time>
      </trkpt>
      <trkpt lat="42.731088" lon="1.980411">
        <ele>1831.0</ele>
        <time>2013-01-08T08:42:54Z</time>
      </trkpt>
      <trkpt lat="42.731056" lon="1.980528">
        <ele>1835.8</ele>
        <time>2013-01-08T08:43:23Z</time>
      </trkpt>
      <trkpt lat="42.730964" lon="1.980596">
        <ele>1840.1</ele>
        <time>2013-01-08T08:44:12Z</time>
      </trkpt>
      <trkpt lat="42.730895" lon="1.980641">
        <ele>1843.9</ele>
        <time>2013-01-08T08:44:33Z</time>
      </trkpt>
      <trkpt lat="42.730788" lon="1.980682">
        <ele>1848.8</ele>
        <time>2013-01-08T08:45:04Z</time>
      </trkpt>
      <trkpt lat="42.730722" lon="1.980725">
        <ele>1852.6</ele>
        <time>2013-01-08T08:45:31Z</time>
      </trkpt>
      <trkpt lat="42.730634" lon="1.980757">
        <ele>1856.9</ele>
        <time>2013-01-08T08:46:02Z</time>
      </trkpt>
      <trkpt lat="42.730560" lon="1.980757">
        <ele>1859.3</ele>
        <time>2013-01-08T08:46:24Z</time>
      </trkpt>
      <trkpt lat="42.730468" lon="1.980763">
        <ele>1868.0</ele>
        <time>2013-01-08T08:46:48Z</time>
      </trkpt>
      <trkpt lat="42.730413" lon="1.980869">
        <ele>1867.0</ele>
        <time>2013-01-08T08:47:17Z</time>
      </trkpt>
      <trkpt lat="42.730372" lon="1.980911">
        <ele>1870.4</ele>
        <time>2013-01-08T08:47:39Z</time>
      </trkpt>
      <trkpt lat="42.730375" lon="1.981048">
        <ele>1874.7</ele>
        <time>2013-01-08T08:48:16Z</time>
      </trkpt>
      <trkpt lat="42.730325" lon="1.981173">
        <ele>1879.0</ele>
        <time>2013-01-08T08:48:50Z</time>
      </trkpt>
      <trkpt lat="42.730210" lon="1.981156">
        <ele>1881.9</ele>
        <time>2013-01-08T08:49:18Z</time>
      </trkpt>
      <trkpt lat="42.730133" lon="1.981160">
        <ele>1884.3</ele>
        <time>2013-01-08T08:50:23Z</time>
      </trkpt>
      <trkpt lat="42.730061" lon="1.981212">
        <ele>1887.7</ele>
        <time>2013-01-08T08:51:03Z</time>
      </trkpt>
      <trkpt lat="42.730013" lon="1.981292">
        <ele>1891.1</ele>
        <time>2013-01-08T08:51:26Z</time>
      </trkpt>
      <trkpt lat="42.729927" lon="1.981272">
        <ele>1893.4</ele>
        <time>2013-01-08T08:51:46Z</time>
      </trkpt>
      <trkpt lat="42.729860" lon="1.981295">
        <ele>1896.3</ele>
        <time>2013-01-08T08:52:06Z</time>
      </trkpt>
      <trkpt lat="42.729778" lon="1.981333">
        <ele>1900.7</ele>
        <time>2013-01-08T08:52:37Z</time>
      </trkpt>
      <trkpt lat="42.729690" lon="1.981352">
        <ele>1903.6</ele>
        <time>2013-01-08T08:53:01Z</time>
      </trkpt>
      <trkpt lat="42.729601" lon="1.981352">
        <ele>1906.4</ele>
        <time>2013-01-08T08:53:27Z</time>
      </trkpt>
      <trkpt lat="42.729504" lon="1.981406">
        <ele>1909.8</ele>
        <time>2013-01-08T08:53:57Z</time>
      </trkpt>
      <trkpt lat="42.729401" lon="1.981413">
        <ele>1913.2</ele>
        <time>2013-01-08T08:54:23Z</time>
      </trkpt>
      <trkpt lat="42.729336" lon="1.981464">
        <ele>1916.5</ele>
        <time>2013-01-08T08:54:49Z</time>
      </trkpt>
      <trkpt lat="42.729273" lon="1.981505">
        <ele>1919.4</ele>
        <time>2013-01-08T08:55:11Z</time>
      </trkpt>
      <trkpt lat="42.729201" lon="1.981491">
        <ele>1921.3</ele>
        <time>2013-01-08T08:55:33Z</time>
      </trkpt>
      <trkpt lat="42.729124" lon="1.981518">
        <ele>1924.2</ele>
        <time>2013-01-08T08:55:55Z</time>
      </trkpt>
      <trkpt lat="42.729053" lon="1.981550">
        <ele>1926.6</ele>
        <time>2013-01-08T08:56:38Z</time>
      </trkpt>
      <trkpt lat="42.728978" lon="1.981610">
        <ele>1930.5</ele>
        <time>2013-01-08T08:57:03Z</time>
      </trkpt>
      <trkpt lat="42.728898" lon="1.981660">
        <ele>1932.9</ele>
        <time>2013-01-08T08:57:24Z</time>
      </trkpt>
      <trkpt lat="42.728821" lon="1.981696">
        <ele>1934.3</ele>
        <time>2013-01-08T08:57:40Z</time>
      </trkpt>
      <trkpt lat="42.728765" lon="1.981723">
        <ele>1937.2</ele>
        <time>2013-01-08T08:58:00Z</time>
      </trkpt>
      <trkpt lat="42.728653" lon="1.981733">
        <ele>1941.5</ele>
        <time>2013-01-08T08:58:30Z</time>
      </trkpt>
      <trkpt lat="42.728583" lon="1.981736">
        <ele>1945.4</ele>
        <time>2013-01-08T08:59:00Z</time>
      </trkpt>
      <trkpt lat="42.728471" lon="1.981730">
        <ele>1950.2</ele>
        <time>2013-01-08T08:59:38Z</time>
      </trkpt>
      <trkpt lat="42.728399" lon="1.981723">
        <ele>1954.0</ele>
        <time>2013-01-08T09:00:07Z</time>
      </trkpt>
      <trkpt lat="42.728315" lon="1.981720">
        <ele>1958.3</ele>
        <time>2013-01-08T09:00:40Z</time>
      </trkpt>
      <trkpt lat="42.728239" lon="1.981690">
        <ele>1961.7</ele>
        <time>2013-01-08T09:01:08Z</time>
      </trkpt>
      <trkpt lat="42.728163" lon="1.981680">
        <ele>1964.6</ele>
        <time>2013-01-08T09:01:34Z</time>
      </trkpt>
      <trkpt lat="42.728053" lon="1.981699">
        <ele>1967.5</ele>
        <time>2013-01-08T09:01:56Z</time>
      </trkpt>
      <trkpt lat="42.727963" lon="1.981723">
        <ele>1969.4</ele>
        <time>2013-01-08T09:02:16Z</time>
      </trkpt>
      <trkpt lat="42.727892" lon="1.981727">
        <ele>1970.4</ele>
        <time>2013-01-08T09:02:34Z</time>
      </trkpt>
      <trkpt lat="42.727798" lon="1.981719">
        <ele>1973.7</ele>
        <time>2013-01-08T09:02:52Z</time>
      </trkpt>
      <trkpt lat="42.727739" lon="1.981674">
        <ele>1976.1</ele>
        <time>2013-01-08T09:03:17Z</time>
      </trkpt>
      <trkpt lat="42.727647" lon="1.981721">
        <ele>1977.1</ele>
        <time>2013-01-08T09:03:37Z</time>
      </trkpt>
      <trkpt lat="42.727556" lon="1.981765">
        <ele>1979.0</ele>
        <time>2013-01-08T09:03:57Z</time>
      </trkpt>
      <trkpt lat="42.727451" lon="1.981736">
        <ele>1980.9</ele>
        <time>2013-01-08T09:04:12Z</time>
      </trkpt>
      <trkpt lat="42.727360" lon="1.981724">
        <ele>1982.9</ele>
        <time>2013-01-08T09:04:40Z</time>
      </trkpt>
      <trkpt lat="42.727389" lon="1.981674">
        <ele>1983.8</ele>
        <time>2013-01-08T09:04:56Z</time>
      </trkpt>
      <trkpt lat="42.727283" lon="1.981638">
        <ele>1985.7</ele>
        <time>2013-01-08T09:05:09Z</time>
      </trkpt>
      <trkpt lat="42.727211" lon="1.981614">
        <ele>1987.2</ele>
        <time>2013-01-08T09:05:22Z</time>
      </trkpt>
      <trkpt lat="42.727246" lon="1.981675">
        <ele>1986.7</ele>
        <time>2013-01-08T09:09:49Z</time>
      </trkpt>
      <trkpt lat="42.727209" lon="1.981567">
        <ele>1986.7</ele>
        <time>2013-01-08T09:12:41Z</time>
      </trkpt>
      <trkpt lat="42.727120" lon="1.981505">
        <ele>1986.7</ele>
        <time>2013-01-08T09:12:54Z</time>
      </trkpt>
      <trkpt lat="42.727033" lon="1.981449">
        <ele>1987.7</ele>
        <time>2013-01-08T09:13:06Z</time>
      </trkpt>
      <trkpt lat="42.726961" lon="1.981381">
        <ele>1988.6</ele>
        <time>2013-01-08T09:13:18Z</time>
      </trkpt>
      <trkpt lat="42.726879" lon="1.981319">
        <ele>1988.1</ele>
        <time>2013-01-08T09:13:31Z</time>
      </trkpt>
      <trkpt lat="42.726794" lon="1.981314">
        <ele>1989.1</ele>
        <time>2013-01-08T09:13:44Z</time>
      </trkpt>
      <trkpt lat="42.726726" lon="1.981360">
        <ele>1990.6</ele>
        <time>2013-01-08T09:13:59Z</time>
      </trkpt>
      <trkpt lat="42.726633" lon="1.981387">
        <ele>1991.0</ele>
        <time>2013-01-08T09:14:10Z</time>
      </trkpt>
      <trkpt lat="42.726546" lon="1.981397">
        <ele>1992.5</ele>
        <time>2013-01-08T09:14:24Z</time>
      </trkpt>
      <trkpt lat="42.726460" lon="1.981449">
        <ele>1992.9</ele>
        <time>2013-01-08T09:14:37Z</time>
      </trkpt>
      <trkpt lat="42.726364" lon="1.981482">
        <ele>1993.4</ele>
        <time>2013-01-08T09:14:51Z</time>
      </trkpt>
      <trkpt lat="42.726273" lon="1.981530">
        <ele>1994.4</ele>
        <time>2013-01-08T09:15:05Z</time>
      </trkpt>
      <trkpt lat="42.726188" lon="1.981563">
        <ele>1995.3</ele>
        <time>2013-01-08T09:15:19Z</time>
      </trkpt>
      <trkpt lat="42.726095" lon="1.981587">
        <ele>1996.3</ele>
        <time>2013-01-08T09:15:34Z</time>
      </trkpt>
      <trkpt lat="42.726007" lon="1.981611">
        <ele>1996.8</ele>
        <time>2013-01-08T09:15:49Z</time>
      </trkpt>
      <trkpt lat="42.725910" lon="1.981643">
        <ele>1997.8</ele>
        <time>2013-01-08T09:16:03Z</time>
      </trkpt>
      <trkpt lat="42.725855" lon="1.981665">
        <ele>1998.7</ele>
        <time>2013-01-08T09:16:42Z</time>
      </trkpt>
      <trkpt lat="42.725753" lon="1.981670">
        <ele>1999.7</ele>
        <time>2013-01-08T09:16:59Z</time>
      </trkpt>
      <trkpt lat="42.725650" lon="1.981689">
        <ele>2000.2</ele>
        <time>2013-01-08T09:17:11Z</time>
      </trkpt>
      <trkpt lat="42.725563" lon="1.981716">
        <ele>2000.6</ele>
        <time>2013-01-08T09:17:22Z</time>
      </trkpt>
      <trkpt lat="42.725474" lon="1.981722">
        <ele>2002.1</ele>
        <time>2013-01-08T09:17:34Z</time>
      </trkpt>
      <trkpt lat="42.725370" lon="1.981748">
        <ele>2003.5</ele>
        <time>2013-01-08T09:17:47Z</time>
      </trkpt>
      <trkpt lat="42.725279" lon="1.981774">
        <ele>2004.5</ele>
        <time>2013-01-08T09:18:00Z</time>
      </trkpt>
      <trkpt lat="42.725180" lon="1.981767">
        <ele>2005.9</ele>
        <time>2013-01-08T09:18:12Z</time>
      </trkpt>
      <trkpt lat="42.725094" lon="1.981764">
        <ele>2007.4</ele>
        <time>2013-01-08T09:18:24Z</time>
      </trkpt>
      <trkpt lat="42.725003" lon="1.981788">
        <ele>2008.8</ele>
        <time>2013-01-08T09:18:39Z</time>
      </trkpt>
      <trkpt lat="42.724916" lon="1.981786">
        <ele>2009.8</ele>
        <time>2013-01-08T09:18:52Z</time>
      </trkpt>
      <trkpt lat="42.724828" lon="1.981794">
        <ele>2011.7</ele>
        <time>2013-01-08T09:19:05Z</time>
      </trkpt>
      <trkpt lat="42.724732" lon="1.981773">
        <ele>2013.6</ele>
        <time>2013-01-08T09:19:24Z</time>
      </trkpt>
      <trkpt lat="42.724650" lon="1.981784">
        <ele>2013.6</ele>
        <time>2013-01-08T09:19:43Z</time>
      </trkpt>
      <trkpt lat="42.724559" lon="1.981806">
        <ele>2017.0</ele>
        <time>2013-01-08T09:19:59Z</time>
      </trkpt>
      <trkpt lat="42.724469" lon="1.981827">
        <ele>2018.4</ele>
        <time>2013-01-08T09:20:15Z</time>
      </trkpt>
      <trkpt lat="42.724373" lon="1.981846">
        <ele>2019.4</ele>
        <time>2013-01-08T09:20:31Z</time>
      </trkpt>
      <trkpt lat="42.724280" lon="1.981822">
        <ele>2020.8</ele>
        <time>2013-01-08T09:20:47Z</time>
      </trkpt>
      <trkpt lat="42.724194" lon="1.981795">
        <ele>2021.3</ele>
        <time>2013-01-08T09:21:01Z</time>
      </trkpt>
      <trkpt lat="42.724105" lon="1.981769">
        <ele>2021.8</ele>
        <time>2013-01-08T09:21:14Z</time>
      </trkpt>
      <trkpt lat="42.724010" lon="1.981740">
        <ele>2023.2</ele>
        <time>2013-01-08T09:21:28Z</time>
      </trkpt>
      <trkpt lat="42.723920" lon="1.981735">
        <ele>2023.2</ele>
        <time>2013-01-08T09:21:41Z</time>
      </trkpt>
      <trkpt lat="42.723828" lon="1.981700">
        <ele>2024.2</ele>
        <time>2013-01-08T09:21:55Z</time>
      </trkpt>
      <trkpt lat="42.723740" lon="1.981724">
        <ele>2018.2</ele>
        <time>2013-01-08T09:22:10Z</time>
      </trkpt>
      <trkpt lat="42.723641" lon="1.981771">
        <ele>2019.1</ele>
        <time>2013-01-08T09:22:25Z</time>
      </trkpt>
      <trkpt lat="42.723517" lon="1.981830">
        <ele>2020.2</ele>
        <time>2013-01-08T09:22:40Z</time>
      </trkpt>
      <trkpt lat="42.723403" lon="1.981798">
        <ele>2021.8</ele>
        <time>2013-01-08T09:22:58Z</time>
      </trkpt>
      <trkpt lat="42.723236" lon="1.981901">
        <ele>2022.8</ele>
        <time>2013-01-08T09:23:19Z</time>
      </trkpt>
      <trkpt lat="42.723131" lon="1.981942">
        <ele>2023.6</ele>
        <time>2013-01-08T09:23:51Z</time>
      </trkpt>
      <trkpt lat="42.723020" lon="1.981994">
        <ele>2024.2</ele>
        <time>2013-01-08T09:24:26Z</time>
      </trkpt>
      <trkpt lat="42.722921" lon="1.982025">
        <ele>2024.9</ele>
        <time>2013-01-08T09:24:48Z</time>
      </trkpt>
      <trkpt lat="42.722800" lon="1.982030">
        <ele>2026.1</ele>
        <time>2013-01-08T09:25:10Z</time>
      </trkpt>
      <trkpt lat="42.722693" lon="1.982092">
        <ele>2026.5</ele>
        <time>2013-01-08T09:25:37Z</time>
      </trkpt>
      <trkpt lat="42.722563" lon="1.982139">
        <ele>2027.2</ele>
        <time>2013-01-08T09:26:40Z</time>
      </trkpt>
      <trkpt lat="42.722355" lon="1.982160">
        <ele>2028.9</ele>
        <time>2013-01-08T09:27:06Z</time>
      </trkpt>
      <trkpt lat="42.722154" lon="1.982208">
        <ele>2030.4</ele>
        <time>2013-01-08T09:27:26Z</time>
      </trkpt>
      <trkpt lat="42.722000" lon="1.982208">
        <ele>2031.9</ele>
        <time>2013-01-08T09:27:51Z</time>
      </trkpt>
      <trkpt lat="42.721840" lon="1.982208">
        <ele>2033.6</ele>
        <time>2013-01-08T09:28:11Z</time>
      </trkpt>
      <trkpt lat="42.721679" lon="1.982199">
        <ele>2035.2</ele>
        <time>2013-01-08T09:30:37Z</time>
      </trkpt>
      <trkpt lat="42.721537" lon="1.982199">
        <ele>2036.7</ele>
        <time>2013-01-08T09:30:53Z</time>
      </trkpt>
      <trkpt lat="42.721376" lon="1.982147">
        <ele>2039.0</ele>
        <time>2013-01-08T09:31:08Z</time>
      </trkpt>
      <trkpt lat="42.721225" lon="1.982083">
        <ele>2041.2</ele>
        <time>2013-01-08T09:31:25Z</time>
      </trkpt>
      <trkpt lat="42.721023" lon="1.982009">
        <ele>2044.0</ele>
        <time>2013-01-08T09:31:41Z</time>
      </trkpt>
      <trkpt lat="42.720810" lon="1.981999">
        <ele>2045.8</ele>
        <time>2013-01-08T09:32:15Z</time>
      </trkpt>
      <trkpt lat="42.720707" lon="1.981889">
        <ele>2046.6</ele>
        <time>2013-01-08T09:32:36Z</time>
      </trkpt>
      <trkpt lat="42.720538" lon="1.981849">
        <ele>2046.5</ele>
        <time>2013-01-08T09:32:58Z</time>
      </trkpt>
      <trkpt lat="42.720469" lon="1.981890">
        <ele>2046.0</ele>
        <time>2013-01-08T09:39:55Z</time>
      </trkpt>
      <trkpt lat="42.720346" lon="1.981826">
        <ele>2046.3</ele>
        <time>2013-01-08T09:40:07Z</time>
      </trkpt>
      <trkpt lat="42.720252" lon="1.981786">
        <ele>2046.5</ele>
        <time>2013-01-08T09:40:22Z</time>
      </trkpt>
      <trkpt lat="42.720123" lon="1.981730">
        <ele>2046.7</ele>
        <time>2013-01-08T09:40:35Z</time>
      </trkpt>
      <trkpt lat="42.719987" lon="1.981730">
        <ele>2046.3</ele>
        <time>2013-01-08T09:40:49Z</time>
      </trkpt>
      <trkpt lat="42.719864" lon="1.981706">
        <ele>2045.9</ele>
        <time>2013-01-08T09:41:04Z</time>
      </trkpt>
      <trkpt lat="42.719729" lon="1.981754">
        <ele>2044.9</ele>
        <time>2013-01-08T09:41:15Z</time>
      </trkpt>
      <trkpt lat="42.719605" lon="1.981802">
        <ele>2043.6</ele>
        <time>2013-01-08T09:41:30Z</time>
      </trkpt>
      <trkpt lat="42.719523" lon="1.981746">
        <ele>2043.8</ele>
        <time>2013-01-08T09:41:44Z</time>
      </trkpt>
      <trkpt lat="42.719429" lon="1.981706">
        <ele>2043.8</ele>
        <time>2013-01-08T09:41:59Z</time>
      </trkpt>
      <trkpt lat="42.719335" lon="1.981610">
        <ele>2045.0</ele>
        <time>2013-01-08T09:42:13Z</time>
      </trkpt>
      <trkpt lat="42.719247" lon="1.981546">
        <ele>2045.8</ele>
        <time>2013-01-08T09:42:25Z</time>
      </trkpt>
      <trkpt lat="42.719164" lon="1.981490">
        <ele>2046.5</ele>
        <time>2013-01-08T09:42:37Z</time>
      </trkpt>
      <trkpt lat="42.719082" lon="1.981394">
        <ele>2047.3</ele>
        <time>2013-01-08T09:43:21Z</time>
      </trkpt>
      <trkpt lat="42.719016" lon="1.981287">
        <ele>2039.1</ele>
        <time>2013-01-08T09:45:54Z</time>
      </trkpt>
      <trkpt lat="42.718930" lon="1.981222">
        <ele>2038.6</ele>
        <time>2013-01-08T09:46:05Z</time>
      </trkpt>
      <trkpt lat="42.718841" lon="1.981158">
        <ele>2038.1</ele>
        <time>2013-01-08T09:46:17Z</time>
      </trkpt>
      <trkpt lat="42.718753" lon="1.981099">
        <ele>2037.7</ele>
        <time>2013-01-08T09:46:29Z</time>
      </trkpt>
      <trkpt lat="42.718669" lon="1.981040">
        <ele>2037.2</ele>
        <time>2013-01-08T09:46:41Z</time>
      </trkpt>
      <trkpt lat="42.718586" lon="1.980977">
        <ele>2036.7</ele>
        <time>2013-01-08T09:46:53Z</time>
      </trkpt>
      <trkpt lat="42.718495" lon="1.980904">
        <ele>2037.7</ele>
        <time>2013-01-08T09:47:08Z</time>
      </trkpt>
      <trkpt lat="42.718408" lon="1.980849">
        <ele>2038.1</ele>
        <time>2013-01-08T09:47:20Z</time>
      </trkpt>
      <trkpt lat="42.718323" lon="1.980776">
        <ele>2038.1</ele>
        <time>2013-01-08T09:47:31Z</time>
      </trkpt>
      <trkpt lat="42.718242" lon="1.980695">
        <ele>2038.1</ele>
        <time>2013-01-08T09:47:46Z</time>
      </trkpt>
      <trkpt lat="42.718150" lon="1.980641">
        <ele>2039.1</ele>
        <time>2013-01-08T09:48:00Z</time>
      </trkpt>
      <trkpt lat="42.718065" lon="1.980583">
        <ele>2040.5</ele>
        <time>2013-01-08T09:48:16Z</time>
      </trkpt>
      <trkpt lat="42.717978" lon="1.980529">
        <ele>2042.5</ele>
        <time>2013-01-08T09:48:33Z</time>
      </trkpt>
      <trkpt lat="42.717904" lon="1.980483">
        <ele>2045.3</ele>
        <time>2013-01-08T09:48:50Z</time>
      </trkpt>
      <trkpt lat="42.717818" lon="1.980435">
        <ele>2047.8</ele>
        <time>2013-01-08T09:49:10Z</time>
      </trkpt>
      <trkpt lat="42.717728" lon="1.980396">
        <ele>2049.7</ele>
        <time>2013-01-08T09:49:29Z</time>
      </trkpt>
      <trkpt lat="42.717639" lon="1.980351">
        <ele>2051.6</ele>
        <time>2013-01-08T09:49:49Z</time>
      </trkpt>
      <trkpt lat="42.717546" lon="1.980312">
        <ele>2054.0</ele>
        <time>2013-01-08T09:50:07Z</time>
      </trkpt>
      <trkpt lat="42.717459" lon="1.980279">
        <ele>2055.9</ele>
        <time>2013-01-08T09:50:22Z</time>
      </trkpt>
      <trkpt lat="42.717379" lon="1.980226">
        <ele>2055.9</ele>
        <time>2013-01-08T09:50:34Z</time>
      </trkpt>
      <trkpt lat="42.717292" lon="1.980161">
        <ele>2056.9</ele>
        <time>2013-01-08T09:50:51Z</time>
      </trkpt>
      <trkpt lat="42.717212" lon="1.980077">
        <ele>2056.4</ele>
        <time>2013-01-08T09:51:04Z</time>
      </trkpt>
      <trkpt lat="42.717128" lon="1.979995">
        <ele>2056.9</ele>
        <time>2013-01-08T09:51:16Z</time>
      </trkpt>
      <trkpt lat="42.717110" lon="1.979855">
        <ele>2056.9</ele>
        <time>2013-01-08T09:51:28Z</time>
      </trkpt>
      <trkpt lat="42.717081" lon="1.979717">
        <ele>2057.8</ele>
        <time>2013-01-08T09:51:40Z</time>
      </trkpt>
      <trkpt lat="42.717029" lon="1.979601">
        <ele>2058.3</ele>
        <time>2013-01-08T09:51:52Z</time>
      </trkpt>
      <trkpt lat="42.716960" lon="1.979531">
        <ele>2058.8</ele>
        <time>2013-01-08T09:52:04Z</time>
      </trkpt>
      <trkpt lat="42.716902" lon="1.979420">
        <ele>2056.9</ele>
        <time>2013-01-08T09:52:17Z</time>
      </trkpt>
      <trkpt lat="42.716858" lon="1.979295">
        <ele>2055.4</ele>
        <time>2013-01-08T09:52:28Z</time>
      </trkpt>
      <trkpt lat="42.716804" lon="1.979203">
        <ele>2055.9</ele>
        <time>2013-01-08T09:52:39Z</time>
      </trkpt>
      <trkpt lat="42.716716" lon="1.979201">
        <ele>2056.9</ele>
        <time>2013-01-08T09:52:50Z</time>
      </trkpt>
      <trkpt lat="42.716609" lon="1.979211">
        <ele>2059.3</ele>
        <time>2013-01-08T09:53:10Z</time>
      </trkpt>
      <trkpt lat="42.716519" lon="1.979247">
        <ele>2062.2</ele>
        <time>2013-01-08T09:53:31Z</time>
      </trkpt>
      <trkpt lat="42.716425" lon="1.979256">
        <ele>2064.6</ele>
        <time>2013-01-08T09:53:50Z</time>
      </trkpt>
      <trkpt lat="42.716334" lon="1.979244">
        <ele>2067.0</ele>
        <time>2013-01-08T09:54:08Z</time>
      </trkpt>
      <trkpt lat="42.716241" lon="1.979240">
        <ele>2069.9</ele>
        <time>2013-01-08T09:54:27Z</time>
      </trkpt>
      <trkpt lat="42.716163" lon="1.979226">
        <ele>2072.3</ele>
        <time>2013-01-08T09:55:19Z</time>
      </trkpt>
      <trkpt lat="42.716077" lon="1.979237">
        <ele>2074.7</ele>
        <time>2013-01-08T09:55:38Z</time>
      </trkpt>
      <trkpt lat="42.715994" lon="1.979191">
        <ele>2077.1</ele>
        <time>2013-01-08T09:55:56Z</time>
      </trkpt>
      <trkpt lat="42.715906" lon="1.979140">
        <ele>2078.5</ele>
        <time>2013-01-08T09:56:13Z</time>
      </trkpt>
      <trkpt lat="42.715828" lon="1.979081">
        <ele>2079.9</ele>
        <time>2013-01-08T09:56:26Z</time>
      </trkpt>
      <trkpt lat="42.715760" lon="1.978999">
        <ele>2080.4</ele>
        <time>2013-01-08T09:56:39Z</time>
      </trkpt>
      <trkpt lat="42.715698" lon="1.978906">
        <ele>2080.9</ele>
        <time>2013-01-08T09:56:50Z</time>
      </trkpt>
      <trkpt lat="42.715619" lon="1.978855">
        <ele>2080.4</ele>
        <time>2013-01-08T09:57:02Z</time>
      </trkpt>
      <trkpt lat="42.715543" lon="1.978795">
        <ele>2079.5</ele>
        <time>2013-01-08T09:57:14Z</time>
      </trkpt>
      <trkpt lat="42.715460" lon="1.978716">
        <ele>2079.5</ele>
        <time>2013-01-08T09:57:25Z</time>
      </trkpt>
      <trkpt lat="42.715380" lon="1.978647">
        <ele>2077.6</ele>
        <time>2013-01-08T09:57:37Z</time>
      </trkpt>
      <trkpt lat="42.715287" lon="1.978582">
        <ele>2075.1</ele>
        <time>2013-01-08T09:57:49Z</time>
      </trkpt>
      <trkpt lat="42.715172" lon="1.978557">
        <ele>2073.7</ele>
        <time>2013-01-08T09:58:02Z</time>
      </trkpt>
      <trkpt lat="42.715088" lon="1.978515">
        <ele>2073.7</ele>
        <time>2013-01-08T09:58:13Z</time>
      </trkpt>
      <trkpt lat="42.714996" lon="1.978490">
        <ele>2074.2</ele>
        <time>2013-01-08T09:59:51Z</time>
      </trkpt>
      <trkpt lat="42.714908" lon="1.978518">
        <ele>2075.6</ele>
        <time>2013-01-08T10:00:07Z</time>
      </trkpt>
      <trkpt lat="42.714814" lon="1.978567">
        <ele>2077.6</ele>
        <time>2013-01-08T10:00:24Z</time>
      </trkpt>
      <trkpt lat="42.714729" lon="1.978570">
        <ele>2079.5</ele>
        <time>2013-01-08T10:00:42Z</time>
      </trkpt>
      <trkpt lat="42.714640" lon="1.978521">
        <ele>2082.4</ele>
        <time>2013-01-08T10:01:06Z</time>
      </trkpt>
      <trkpt lat="42.714532" lon="1.978551">
        <ele>2086.2</ele>
        <time>2013-01-08T10:01:36Z</time>
      </trkpt>
      <trkpt lat="42.714419" lon="1.978592">
        <ele>2091.5</ele>
        <time>2013-01-08T10:02:15Z</time>
      </trkpt>
      <trkpt lat="42.714309" lon="1.978571">
        <ele>2095.3</ele>
        <time>2013-01-08T10:02:44Z</time>
      </trkpt>
      <trkpt lat="42.714230" lon="1.978559">
        <ele>2097.2</ele>
        <time>2013-01-08T10:03:02Z</time>
      </trkpt>
      <trkpt lat="42.714131" lon="1.978555">
        <ele>2100.6</ele>
        <time>2013-01-08T10:03:25Z</time>
      </trkpt>
      <trkpt lat="42.714078" lon="1.978545">
        <ele>2102.5</ele>
        <time>2013-01-08T10:03:48Z</time>
      </trkpt>
      <trkpt lat="42.713993" lon="1.978568">
        <ele>2105.4</ele>
        <time>2013-01-08T10:04:12Z</time>
      </trkpt>
      <trkpt lat="42.713893" lon="1.978605">
        <ele>2108.8</ele>
        <time>2013-01-08T10:04:42Z</time>
      </trkpt>
      <trkpt lat="42.713806" lon="1.978567">
        <ele>2112.1</ele>
        <time>2013-01-08T10:05:09Z</time>
      </trkpt>
      <trkpt lat="42.713711" lon="1.978493">
        <ele>2117.0</ele>
        <time>2013-01-08T10:05:45Z</time>
      </trkpt>
      <trkpt lat="42.713634" lon="1.978505">
        <ele>2118.4</ele>
        <time>2013-01-08T10:06:18Z</time>
      </trkpt>
      <trkpt lat="42.713703" lon="1.978478">
        <ele>2117.9</ele>
        <time>2013-01-08T10:07:10Z</time>
      </trkpt>
      <trkpt lat="42.713717" lon="1.978513">
        <ele>2117.0</ele>
        <time>2013-01-08T10:07:46Z</time>
      </trkpt>
      <trkpt lat="42.713647" lon="1.978504">
        <ele>2119.4</ele>
        <time>2013-01-08T10:11:37Z</time>
      </trkpt>
      <trkpt lat="42.713633" lon="1.978478">
        <ele>2119.8</ele>
        <time>2013-01-08T10:18:22Z</time>
      </trkpt>
      <trkpt lat="42.713627" lon="1.978471">
        <ele>2119.8</ele>
        <time>2013-01-08T10:21:26Z</time>
      </trkpt>
      <trkpt lat="42.713585" lon="1.978450">
        <ele>2120.3</ele>
        <time>2013-01-08T10:23:00Z</time>
      </trkpt>
      <trkpt lat="42.713490" lon="1.978471">
        <ele>2121.3</ele>
        <time>2013-01-08T10:23:16Z</time>
      </trkpt>
      <trkpt lat="42.713396" lon="1.978462">
        <ele>2122.7</ele>
        <time>2013-01-08T10:23:34Z</time>
      </trkpt>
      <trkpt lat="42.713294" lon="1.978454">
        <ele>2123.2</ele>
        <time>2013-01-08T10:24:01Z</time>
      </trkpt>
      <trkpt lat="42.713227" lon="1.978392">
        <ele>2125.1</ele>
        <time>2013-01-08T10:24:16Z</time>
      </trkpt>
      <trkpt lat="42.713125" lon="1.978352">
        <ele>2127.1</ele>
        <time>2013-01-08T10:24:36Z</time>
      </trkpt>
      <trkpt lat="42.713036" lon="1.978334">
        <ele>2129.0</ele>
        <time>2013-01-08T10:25:24Z</time>
      </trkpt>
      <trkpt lat="42.712971" lon="1.978294">
        <ele>2131.9</ele>
        <time>2013-01-08T10:25:43Z</time>
      </trkpt>
      <trkpt lat="42.712858" lon="1.978255">
        <ele>2135.7</ele>
        <time>2013-01-08T10:26:04Z</time>
      </trkpt>
      <trkpt lat="42.712766" lon="1.978193">
        <ele>2126.0</ele>
        <time>2013-01-08T10:26:28Z</time>
      </trkpt>
      <trkpt lat="42.712683" lon="1.978090">
        <ele>2131.9</ele>
        <time>2013-01-08T10:26:50Z</time>
      </trkpt>
      <trkpt lat="42.712551" lon="1.977967">
        <ele>2140.3</ele>
        <time>2013-01-08T10:27:23Z</time>
      </trkpt>
      <trkpt lat="42.712406" lon="1.977798">
        <ele>2148.3</ele>
        <time>2013-01-08T10:28:04Z</time>
      </trkpt>
      <trkpt lat="42.712254" lon="1.977722">
        <ele>2151.5</ele>
        <time>2013-01-08T10:28:35Z</time>
      </trkpt>
      <trkpt lat="42.712095" lon="1.977628">
        <ele>2155.6</ele>
        <time>2013-01-08T10:28:56Z</time>
      </trkpt>
      <trkpt lat="42.711949" lon="1.977553">
        <ele>2158.3</ele>
        <time>2013-01-08T10:29:16Z</time>
      </trkpt>
      <trkpt lat="42.711790" lon="1.977459">
        <ele>2162.2</ele>
        <time>2013-01-08T10:29:41Z</time>
      </trkpt>
      <trkpt lat="42.711642" lon="1.977424">
        <ele>2163.3</ele>
        <time>2013-01-08T10:30:12Z</time>
      </trkpt>
      <trkpt lat="42.711502" lon="1.977320">
        <ele>2166.0</ele>
        <time>2013-01-08T10:30:39Z</time>
      </trkpt>
      <trkpt lat="42.711315" lon="1.977233">
        <ele>2167.9</ele>
        <time>2013-01-08T10:31:03Z</time>
      </trkpt>
      <trkpt lat="42.711217" lon="1.977145">
        <ele>2170.1</ele>
        <time>2013-01-08T10:31:22Z</time>
      </trkpt>
      <trkpt lat="42.711166" lon="1.977042">
        <ele>2172.8</ele>
        <time>2013-01-08T10:31:42Z</time>
        <name>Col Coumeille de l_Ours</name>
      </trkpt>
      <trkpt lat="42.711192" lon="1.976897">
        <ele>2177.1</ele>
        <time>2013-01-08T10:32:02Z</time>
      </trkpt>
      <trkpt lat="42.711230" lon="1.976724">
        <ele>2182.3</ele>
        <time>2013-01-08T10:32:19Z</time>
      </trkpt>
      <trkpt lat="42.711251" lon="1.976560">
        <ele>2186.6</ele>
        <time>2013-01-08T10:33:09Z</time>
      </trkpt>
      <trkpt lat="42.711288" lon="1.976474">
        <ele>2188.7</ele>
        <time>2013-01-08T10:33:33Z</time>
      </trkpt>
      <trkpt lat="42.711345" lon="1.976410">
        <ele>2190.7</ele>
        <time>2013-01-08T10:33:49Z</time>
      </trkpt>
      <trkpt lat="42.711390" lon="1.976321">
        <ele>2193.2</ele>
        <time>2013-01-08T10:34:06Z</time>
      </trkpt>
      <trkpt lat="42.711436" lon="1.976216">
        <ele>2196.1</ele>
        <time>2013-01-08T10:34:23Z</time>
      </trkpt>
      <trkpt lat="42.711478" lon="1.976122">
        <ele>2198.7</ele>
        <time>2013-01-08T10:34:55Z</time>
      </trkpt>
      <trkpt lat="42.711516" lon="1.976043">
        <ele>2201.0</ele>
        <time>2013-01-08T10:35:15Z</time>
      </trkpt>
      <trkpt lat="42.711559" lon="1.975971">
        <ele>2203.4</ele>
        <time>2013-01-08T10:35:30Z</time>
      </trkpt>
      <trkpt lat="42.711606" lon="1.975947">
        <ele>2204.6</ele>
        <time>2013-01-08T10:39:13Z</time>
      </trkpt>
      <trkpt lat="42.711656" lon="1.975858">
        <ele>2201.6</ele>
        <time>2013-01-08T10:40:18Z</time>
      </trkpt>
      <trkpt lat="42.711685" lon="1.975815">
        <ele>2203.5</ele>
        <time>2013-01-08T10:45:58Z</time>
      </trkpt>
      <trkpt lat="42.711733" lon="1.975756">
        <ele>2206.4</ele>
        <time>2013-01-08T10:47:33Z</time>
      </trkpt>
      <trkpt lat="42.711814" lon="1.975684">
        <ele>2209.2</ele>
        <time>2013-01-08T10:47:58Z</time>
      </trkpt>
      <trkpt lat="42.711893" lon="1.975632">
        <ele>2211.6</ele>
        <time>2013-01-08T10:48:22Z</time>
      </trkpt>
      <trkpt lat="42.711967" lon="1.975546">
        <ele>2215.0</ele>
        <time>2013-01-08T10:48:48Z</time>
      </trkpt>
      <trkpt lat="42.712001" lon="1.975433">
        <ele>2216.9</ele>
        <time>2013-01-08T10:49:10Z</time>
      </trkpt>
      <trkpt lat="42.712048" lon="1.975343">
        <ele>2218.9</ele>
        <time>2013-01-08T10:49:27Z</time>
      </trkpt>
      <trkpt lat="42.712099" lon="1.975251">
        <ele>2221.3</ele>
        <time>2013-01-08T10:49:51Z</time>
      </trkpt>
      <trkpt lat="42.712127" lon="1.975149">
        <ele>2223.7</ele>
        <time>2013-01-08T10:50:10Z</time>
      </trkpt>
      <trkpt lat="42.712169" lon="1.975082">
        <ele>2225.6</ele>
        <time>2013-01-08T10:50:27Z</time>
      </trkpt>
      <trkpt lat="42.712215" lon="1.974994">
        <ele>2228.0</ele>
        <time>2013-01-08T10:50:45Z</time>
      </trkpt>
      <trkpt lat="42.712253" lon="1.974882">
        <ele>2230.4</ele>
        <time>2013-01-08T10:51:03Z</time>
      </trkpt>
      <trkpt lat="42.712311" lon="1.974798">
        <ele>2232.3</ele>
        <time>2013-01-08T10:51:32Z</time>
      </trkpt>
      <trkpt lat="42.712355" lon="1.974703">
        <ele>2233.8</ele>
        <time>2013-01-08T10:51:47Z</time>
      </trkpt>
      <trkpt lat="42.712404" lon="1.974604">
        <ele>2236.2</ele>
        <time>2013-01-08T10:52:02Z</time>
      </trkpt>
      <trkpt lat="42.712427" lon="1.974509">
        <ele>2238.1</ele>
        <time>2013-01-08T10:52:37Z</time>
      </trkpt>
      <trkpt lat="42.712477" lon="1.974422">
        <ele>2239.1</ele>
        <time>2013-01-08T10:53:09Z</time>
      </trkpt>
      <trkpt lat="42.712518" lon="1.974324">
        <ele>2241.0</ele>
        <time>2013-01-08T10:53:25Z</time>
      </trkpt>
      <trkpt lat="42.712571" lon="1.974233">
        <ele>2243.4</ele>
        <time>2013-01-08T10:53:40Z</time>
      </trkpt>
      <trkpt lat="42.712621" lon="1.974136">
        <ele>2245.3</ele>
        <time>2013-01-08T10:53:56Z</time>
      </trkpt>
      <trkpt lat="42.712654" lon="1.974037">
        <ele>2247.7</ele>
        <time>2013-01-08T10:54:14Z</time>
      </trkpt>
      <trkpt lat="42.712681" lon="1.973924">
        <ele>2249.1</ele>
        <time>2013-01-08T10:54:32Z</time>
      </trkpt>
      <trkpt lat="42.712688" lon="1.973805">
        <ele>2251.1</ele>
        <time>2013-01-08T10:54:52Z</time>
      </trkpt>
      <trkpt lat="42.712730" lon="1.973719">
        <ele>2254.4</ele>
        <time>2013-01-08T10:55:12Z</time>
      </trkpt>
      <trkpt lat="42.712772" lon="1.973670">
        <ele>2257.3</ele>
        <time>2013-01-08T10:55:32Z</time>
      </trkpt>
      <trkpt lat="42.712761" lon="1.973542">
        <ele>2259.7</ele>
        <time>2013-01-08T10:55:50Z</time>
      </trkpt>
      <trkpt lat="42.712778" lon="1.973427">
        <ele>2262.1</ele>
        <time>2013-01-08T10:56:10Z</time>
      </trkpt>
      <trkpt lat="42.712822" lon="1.973377">
        <ele>2264.0</ele>
        <time>2013-01-08T10:56:52Z</time>
      </trkpt>
      <trkpt lat="42.712838" lon="1.973273">
        <ele>2266.4</ele>
        <time>2013-01-08T10:57:13Z</time>
      </trkpt>
      <trkpt lat="42.712882" lon="1.973157">
        <ele>2269.8</ele>
        <time>2013-01-08T10:57:33Z</time>
      </trkpt>
      <trkpt lat="42.712868" lon="1.973037">
        <ele>2273.2</ele>
        <time>2013-01-08T10:58:38Z</time>
      </trkpt>
      <trkpt lat="42.712871" lon="1.972915">
        <ele>2276.1</ele>
        <time>2013-01-08T10:59:01Z</time>
      </trkpt>
      <trkpt lat="42.712834" lon="1.972829">
        <ele>2277.5</ele>
        <time>2013-01-08T10:59:17Z</time>
      </trkpt>
      <trkpt lat="42.712777" lon="1.972751">
        <ele>2279.9</ele>
        <time>2013-01-08T10:59:51Z</time>
      </trkpt>
      <trkpt lat="42.712739" lon="1.972634">
        <ele>2282.3</ele>
        <time>2013-01-08T11:00:10Z</time>
      </trkpt>
      <trkpt lat="42.712693" lon="1.972530">
        <ele>2286.6</ele>
        <time>2013-01-08T11:00:36Z</time>
      </trkpt>
      <trkpt lat="42.712726" lon="1.972425">
        <ele>2289.5</ele>
        <time>2013-01-08T11:02:00Z</time>
      </trkpt>
      <trkpt lat="42.712819" lon="1.972429">
        <ele>2292.9</ele>
        <time>2013-01-08T11:02:21Z</time>
      </trkpt>
      <trkpt lat="42.712896" lon="1.972415">
        <ele>2295.3</ele>
        <time>2013-01-08T11:02:43Z</time>
      </trkpt>
      <trkpt lat="42.712994" lon="1.972378">
        <ele>2298.2</ele>
        <time>2013-01-08T11:03:09Z</time>
      </trkpt>
      <trkpt lat="42.713036" lon="1.972321">
        <ele>2301.1</ele>
        <time>2013-01-08T11:03:36Z</time>
      </trkpt>
      <trkpt lat="42.712979" lon="1.972212">
        <ele>2304.4</ele>
        <time>2013-01-08T11:03:57Z</time>
      </trkpt>
      <trkpt lat="42.712920" lon="1.972109">
        <ele>2307.3</ele>
        <time>2013-01-08T11:04:23Z</time>
      </trkpt>
      <trkpt lat="42.712864" lon="1.972004">
        <ele>2309.7</ele>
        <time>2013-01-08T11:04:41Z</time>
      </trkpt>
      <trkpt lat="42.712832" lon="1.971901">
        <ele>2312.6</ele>
        <time>2013-01-08T11:05:04Z</time>
      </trkpt>
      <trkpt lat="42.712825" lon="1.971837">
        <ele>2315.9</ele>
        <time>2013-01-08T11:07:17Z</time>
      </trkpt>
      <trkpt lat="42.712841" lon="1.971717">
        <ele>2319.3</ele>
        <time>2013-01-08T11:07:44Z</time>
      </trkpt>
      <trkpt lat="42.712934" lon="1.971734">
        <ele>2321.2</ele>
        <time>2013-01-08T11:08:02Z</time>
      </trkpt>
      <trkpt lat="42.713021" lon="1.971747">
        <ele>2322.7</ele>
        <time>2013-01-08T11:08:21Z</time>
      </trkpt>
      <trkpt lat="42.713035" lon="1.971695">
        <ele>2326.5</ele>
        <time>2013-01-08T11:08:45Z</time>
      </trkpt>
      <trkpt lat="42.713001" lon="1.971587">
        <ele>2329.4</ele>
        <time>2013-01-08T11:09:05Z</time>
      </trkpt>
      <trkpt lat="42.712980" lon="1.971469">
        <ele>2332.8</ele>
        <time>2013-01-08T11:09:59Z</time>
      </trkpt>
      <trkpt lat="42.713079" lon="1.971474">
        <ele>2335.7</ele>
        <time>2013-01-08T11:10:22Z</time>
      </trkpt>
      <trkpt lat="42.713170" lon="1.971502">
        <ele>2337.1</ele>
        <time>2013-01-08T11:10:43Z</time>
      </trkpt>
      <trkpt lat="42.713255" lon="1.971521">
        <ele>2340.0</ele>
        <time>2013-01-08T11:11:05Z</time>
      </trkpt>
      <trkpt lat="42.713251" lon="1.971476">
        <ele>2342.9</ele>
        <time>2013-01-08T11:11:31Z</time>
      </trkpt>
      <trkpt lat="42.713214" lon="1.971358">
        <ele>2345.3</ele>
        <time>2013-01-08T11:11:51Z</time>
      </trkpt>
      <trkpt lat="42.713208" lon="1.971232">
        <ele>2348.2</ele>
        <time>2013-01-08T11:12:12Z</time>
      </trkpt>
      <trkpt lat="42.713244" lon="1.971166">
        <ele>2350.6</ele>
        <time>2013-01-08T11:12:31Z</time>
      </trkpt>
      <trkpt lat="42.713342" lon="1.971137">
        <ele>2353.0</ele>
        <time>2013-01-08T11:12:53Z</time>
      </trkpt>
      <trkpt lat="42.713433" lon="1.971089">
        <ele>2356.3</ele>
        <time>2013-01-08T11:13:35Z</time>
      </trkpt>
      <trkpt lat="42.713490" lon="1.971034">
        <ele>2358.2</ele>
        <time>2013-01-08T11:14:00Z</time>
      </trkpt>
      <trkpt lat="42.713586" lon="1.970996">
        <ele>2358.7</ele>
        <time>2013-01-08T11:14:18Z</time>
      </trkpt>
      <trkpt lat="42.713676" lon="1.970962">
        <ele>2359.7</ele>
        <time>2013-01-08T11:14:29Z</time>
      </trkpt>
      <trkpt lat="42.713748" lon="1.970905">
        <ele>2361.6</ele>
        <time>2013-01-08T11:14:45Z</time>
      </trkpt>
      <trkpt lat="42.713817" lon="1.970824">
        <ele>2363.1</ele>
        <time>2013-01-08T11:15:01Z</time>
      </trkpt>
      <trkpt lat="42.713862" lon="1.970734">
        <ele>2362.1</ele>
        <time>2013-01-08T12:04:50Z</time>
      </trkpt>
      <trkpt lat="42.713869" lon="1.970758">
        <ele>2364.0</ele>
        <time>2013-01-08T12:19:55Z</time>
        <name>Pic du Tarbesou</name>
      </trkpt>
      <trkpt lat="42.713947" lon="1.970761">
        <ele>2321.2</ele>
        <time>2013-01-08T12:21:03Z</time>
      </trkpt>
      <trkpt lat="42.714009" lon="1.970791">
        <ele>2319.5</ele>
        <time>2013-01-08T12:21:31Z</time>
      </trkpt>
      <trkpt lat="42.714102" lon="1.970803">
        <ele>2316.8</ele>
        <time>2013-01-08T12:26:59Z</time>
      </trkpt>
      <trkpt lat="42.714186" lon="1.970809">
        <ele>2314.2</ele>
        <time>2013-01-08T12:27:18Z</time>
      </trkpt>
      <trkpt lat="42.714262" lon="1.970821">
        <ele>2312.0</ele>
        <time>2013-01-08T12:27:38Z</time>
      </trkpt>
      <trkpt lat="42.714350" lon="1.970821">
        <ele>2309.1</ele>
        <time>2013-01-08T12:28:09Z</time>
      </trkpt>
      <trkpt lat="42.714457" lon="1.970809">
        <ele>2305.7</ele>
        <time>2013-01-08T12:28:23Z</time>
      </trkpt>
      <trkpt lat="42.714563" lon="1.970821">
        <ele>2302.5</ele>
        <time>2013-01-08T12:28:40Z</time>
      </trkpt>
      <trkpt lat="42.714661" lon="1.970815">
        <ele>2299.3</ele>
        <time>2013-01-08T12:29:08Z</time>
      </trkpt>
      <trkpt lat="42.714781" lon="1.970857">
        <ele>2295.4</ele>
        <time>2013-01-08T12:29:23Z</time>
      </trkpt>
      <trkpt lat="42.714923" lon="1.970863">
        <ele>2290.6</ele>
        <time>2013-01-08T12:29:54Z</time>
      </trkpt>
      <trkpt lat="42.714998" lon="1.970881">
        <ele>2287.9</ele>
        <time>2013-01-08T12:30:10Z</time>
      </trkpt>
      <trkpt lat="42.715091" lon="1.970875">
        <ele>2285.6</ele>
        <time>2013-01-08T12:30:24Z</time>
      </trkpt>
      <trkpt lat="42.715202" lon="1.970887">
        <ele>2282.4</ele>
        <time>2013-01-08T12:30:41Z</time>
      </trkpt>
      <trkpt lat="42.715309" lon="1.970911">
        <ele>2279.2</ele>
        <time>2013-01-08T12:30:59Z</time>
      </trkpt>
      <trkpt lat="42.715388" lon="1.970936">
        <ele>2276.7</ele>
        <time>2013-01-08T12:31:12Z</time>
      </trkpt>
      <trkpt lat="42.715460" lon="1.970952">
        <ele>2300.1</ele>
        <time>2013-01-08T12:31:24Z</time>
      </trkpt>
      <trkpt lat="42.715560" lon="1.970948">
        <ele>2298.2</ele>
        <time>2013-01-08T12:31:36Z</time>
      </trkpt>
      <trkpt lat="42.715649" lon="1.970941">
        <ele>2295.3</ele>
        <time>2013-01-08T12:31:51Z</time>
      </trkpt>
      <trkpt lat="42.715741" lon="1.970946">
        <ele>2293.8</ele>
        <time>2013-01-08T12:32:03Z</time>
      </trkpt>
      <trkpt lat="42.715837" lon="1.970959">
        <ele>2291.0</ele>
        <time>2013-01-08T12:32:37Z</time>
      </trkpt>
      <trkpt lat="42.715918" lon="1.971005">
        <ele>2289.0</ele>
        <time>2013-01-08T12:32:45Z</time>
      </trkpt>
      <trkpt lat="42.715992" lon="1.971068">
        <ele>2287.6</ele>
        <time>2013-01-08T12:32:53Z</time>
      </trkpt>
      <trkpt lat="42.716080" lon="1.971125">
        <ele>2287.1</ele>
        <time>2013-01-08T12:33:03Z</time>
      </trkpt>
      <trkpt lat="42.716171" lon="1.971176">
        <ele>2285.2</ele>
        <time>2013-01-08T12:33:12Z</time>
      </trkpt>
      <trkpt lat="42.716263" lon="1.971235">
        <ele>2285.2</ele>
        <time>2013-01-08T12:33:33Z</time>
      </trkpt>
      <trkpt lat="42.716355" lon="1.971285">
        <ele>2283.8</ele>
        <time>2013-01-08T12:33:42Z</time>
      </trkpt>
      <trkpt lat="42.716450" lon="1.971327">
        <ele>2282.8</ele>
        <time>2013-01-08T12:33:53Z</time>
      </trkpt>
      <trkpt lat="42.716537" lon="1.971363">
        <ele>2281.4</ele>
        <time>2013-01-08T12:34:03Z</time>
      </trkpt>
      <trkpt lat="42.716637" lon="1.971399">
        <ele>2281.8</ele>
        <time>2013-01-08T12:34:26Z</time>
      </trkpt>
      <trkpt lat="42.716712" lon="1.971466">
        <ele>2280.4</ele>
        <time>2013-01-08T12:34:51Z</time>
      </trkpt>
      <trkpt lat="42.716780" lon="1.971540">
        <ele>2277.5</ele>
        <time>2013-01-08T12:35:04Z</time>
      </trkpt>
      <trkpt lat="42.716855" lon="1.971621">
        <ele>2274.6</ele>
        <time>2013-01-08T12:35:15Z</time>
      </trkpt>
      <trkpt lat="42.716934" lon="1.971696">
        <ele>2272.2</ele>
        <time>2013-01-08T12:35:31Z</time>
      </trkpt>
      <trkpt lat="42.717010" lon="1.971774">
        <ele>2270.8</ele>
        <time>2013-01-08T12:35:41Z</time>
      </trkpt>
      <trkpt lat="42.717092" lon="1.971848">
        <ele>2270.3</ele>
        <time>2013-01-08T12:35:51Z</time>
      </trkpt>
      <trkpt lat="42.717141" lon="1.971874">
        <ele>2267.4</ele>
        <time>2013-01-08T12:38:56Z</time>
      </trkpt>
      <trkpt lat="42.717190" lon="1.971931">
        <ele>2266.9</ele>
        <time>2013-01-08T12:40:09Z</time>
      </trkpt>
      <trkpt lat="42.717252" lon="1.972027">
        <ele>2263.6</ele>
        <time>2013-01-08T12:40:21Z</time>
      </trkpt>
      <trkpt lat="42.717326" lon="1.972110">
        <ele>2260.2</ele>
        <time>2013-01-08T12:40:33Z</time>
      </trkpt>
      <trkpt lat="42.717386" lon="1.972205">
        <ele>2256.8</ele>
        <time>2013-01-08T12:40:43Z</time>
      </trkpt>
      <trkpt lat="42.717446" lon="1.972290">
        <ele>2253.0</ele>
        <time>2013-01-08T12:40:54Z</time>
      </trkpt>
      <trkpt lat="42.717491" lon="1.972394">
        <ele>2250.1</ele>
        <time>2013-01-08T12:41:05Z</time>
      </trkpt>
      <trkpt lat="42.717552" lon="1.972474">
        <ele>2248.2</ele>
        <time>2013-01-08T12:41:17Z</time>
      </trkpt>
      <trkpt lat="42.717618" lon="1.972573">
        <ele>2245.8</ele>
        <time>2013-01-08T12:41:27Z</time>
      </trkpt>
      <trkpt lat="42.717685" lon="1.972668">
        <ele>2244.8</ele>
        <time>2013-01-08T12:41:38Z</time>
      </trkpt>
      <trkpt lat="42.717744" lon="1.972768">
        <ele>2238.1</ele>
        <time>2013-01-08T12:41:49Z</time>
      </trkpt>
      <trkpt lat="42.717811" lon="1.972856">
        <ele>2239.5</ele>
        <time>2013-01-08T12:42:00Z</time>
      </trkpt>
      <trkpt lat="42.717861" lon="1.972950">
        <ele>2238.1</ele>
        <time>2013-01-08T12:42:12Z</time>
      </trkpt>
      <trkpt lat="42.717917" lon="1.973052">
        <ele>2236.2</ele>
        <time>2013-01-08T12:42:25Z</time>
      </trkpt>
      <trkpt lat="42.717913" lon="1.973158">
        <ele>2233.8</ele>
        <time>2013-01-08T12:43:35Z</time>
      </trkpt>
      <trkpt lat="42.717954" lon="1.973210">
        <ele>2232.8</ele>
        <time>2013-01-08T12:44:39Z</time>
      </trkpt>
      <trkpt lat="42.718034" lon="1.973289">
        <ele>2230.9</ele>
        <time>2013-01-08T12:44:51Z</time>
      </trkpt>
      <trkpt lat="42.718087" lon="1.973387">
        <ele>2228.0</ele>
        <time>2013-01-08T12:45:01Z</time>
      </trkpt>
      <trkpt lat="42.718152" lon="1.973484">
        <ele>2225.6</ele>
        <time>2013-01-08T12:45:12Z</time>
      </trkpt>
      <trkpt lat="42.718210" lon="1.973585">
        <ele>2222.2</ele>
        <time>2013-01-08T12:45:23Z</time>
      </trkpt>
      <trkpt lat="42.718261" lon="1.973678">
        <ele>2218.9</ele>
        <time>2013-01-08T12:45:35Z</time>
      </trkpt>
      <trkpt lat="42.718330" lon="1.973768">
        <ele>2216.9</ele>
        <time>2013-01-08T12:45:47Z</time>
      </trkpt>
      <trkpt lat="42.718377" lon="1.973849">
        <ele>2212.6</ele>
        <time>2013-01-08T12:46:03Z</time>
      </trkpt>
      <trkpt lat="42.718428" lon="1.973970">
        <ele>2209.2</ele>
        <time>2013-01-08T12:46:15Z</time>
      </trkpt>
      <trkpt lat="42.718421" lon="1.974091">
        <ele>2206.4</ele>
        <time>2013-01-08T12:46:26Z</time>
      </trkpt>
      <trkpt lat="42.718459" lon="1.974201">
        <ele>2203.5</ele>
        <time>2013-01-08T12:46:38Z</time>
      </trkpt>
      <trkpt lat="42.718528" lon="1.974297">
        <ele>2202.0</ele>
        <time>2013-01-08T12:46:51Z</time>
      </trkpt>
      <trkpt lat="42.718595" lon="1.974396">
        <ele>2200.1</ele>
        <time>2013-01-08T12:47:02Z</time>
      </trkpt>
      <trkpt lat="42.718656" lon="1.974491">
        <ele>2197.7</ele>
        <time>2013-01-08T12:47:13Z</time>
      </trkpt>
      <trkpt lat="42.718711" lon="1.974597">
        <ele>2195.3</ele>
        <time>2013-01-08T12:47:24Z</time>
      </trkpt>
      <trkpt lat="42.718770" lon="1.974693">
        <ele>2191.9</ele>
        <time>2013-01-08T12:47:36Z</time>
      </trkpt>
      <trkpt lat="42.718814" lon="1.974797">
        <ele>2189.5</ele>
        <time>2013-01-08T12:47:47Z</time>
      </trkpt>
      <trkpt lat="42.718839" lon="1.974856">
        <ele>2188.1</ele>
        <time>2013-01-08T12:48:16Z</time>
      </trkpt>
      <trkpt lat="42.718899" lon="1.974936">
        <ele>2187.1</ele>
        <time>2013-01-08T12:54:57Z</time>
      </trkpt>
      <trkpt lat="42.718957" lon="1.975035">
        <ele>2185.2</ele>
        <time>2013-01-08T12:55:07Z</time>
      </trkpt>
      <trkpt lat="42.719028" lon="1.975098">
        <ele>2182.8</ele>
        <time>2013-01-08T12:55:17Z</time>
      </trkpt>
      <trkpt lat="42.719117" lon="1.975113">
        <ele>2182.8</ele>
        <time>2013-01-08T12:55:32Z</time>
      </trkpt>
      <trkpt lat="42.719211" lon="1.975162">
        <ele>2180.9</ele>
        <time>2013-01-08T12:55:43Z</time>
      </trkpt>
      <trkpt lat="42.719290" lon="1.975195">
        <ele>2179.4</ele>
        <time>2013-01-08T12:55:53Z</time>
      </trkpt>
      <trkpt lat="42.719377" lon="1.975232">
        <ele>2178.5</ele>
        <time>2013-01-08T12:56:04Z</time>
      </trkpt>
      <trkpt lat="42.719474" lon="1.975250">
        <ele>2174.2</ele>
        <time>2013-01-08T12:56:15Z</time>
      </trkpt>
      <trkpt lat="42.719559" lon="1.975305">
        <ele>2176.1</ele>
        <time>2013-01-08T12:56:27Z</time>
      </trkpt>
      <trkpt lat="42.719636" lon="1.975381">
        <ele>2175.1</ele>
        <time>2013-01-08T12:56:39Z</time>
      </trkpt>
      <trkpt lat="42.719701" lon="1.975445">
        <ele>2174.6</ele>
        <time>2013-01-08T12:56:51Z</time>
      </trkpt>
      <trkpt lat="42.719764" lon="1.975530">
        <ele>2174.2</ele>
        <time>2013-01-08T12:57:05Z</time>
      </trkpt>
      <trkpt lat="42.719832" lon="1.975620">
        <ele>2172.7</ele>
        <time>2013-01-08T12:57:18Z</time>
      </trkpt>
      <trkpt lat="42.719897" lon="1.975713">
        <ele>2171.3</ele>
        <time>2013-01-08T12:58:11Z</time>
      </trkpt>
      <trkpt lat="42.719981" lon="1.975786">
        <ele>2169.8</ele>
        <time>2013-01-08T12:58:23Z</time>
      </trkpt>
      <trkpt lat="42.720062" lon="1.975856">
        <ele>2168.4</ele>
        <time>2013-01-08T12:58:35Z</time>
      </trkpt>
      <trkpt lat="42.720131" lon="1.975939">
        <ele>2166.9</ele>
        <time>2013-01-08T12:58:47Z</time>
      </trkpt>
      <trkpt lat="42.720198" lon="1.976036">
        <ele>2166.9</ele>
        <time>2013-01-08T12:58:59Z</time>
      </trkpt>
      <trkpt lat="42.720270" lon="1.976133">
        <ele>2166.9</ele>
        <time>2013-01-08T12:59:13Z</time>
      </trkpt>
      <trkpt lat="42.720347" lon="1.976217">
        <ele>2165.5</ele>
        <time>2013-01-08T12:59:26Z</time>
      </trkpt>
      <trkpt lat="42.720438" lon="1.976272">
        <ele>2163.1</ele>
        <time>2013-01-08T12:59:40Z</time>
      </trkpt>
      <trkpt lat="42.720527" lon="1.976308">
        <ele>2161.7</ele>
        <time>2013-01-08T12:59:53Z</time>
      </trkpt>
      <trkpt lat="42.720612" lon="1.976359">
        <ele>2158.8</ele>
        <time>2013-01-08T13:00:07Z</time>
      </trkpt>
      <trkpt lat="42.720704" lon="1.976402">
        <ele>2155.9</ele>
        <time>2013-01-08T13:00:21Z</time>
      </trkpt>
      <trkpt lat="42.720787" lon="1.976420">
        <ele>2152.5</ele>
        <time>2013-01-08T13:00:35Z</time>
      </trkpt>
      <trkpt lat="42.720885" lon="1.976455">
        <ele>2149.6</ele>
        <time>2013-01-08T13:00:50Z</time>
      </trkpt>
      <trkpt lat="42.720974" lon="1.976501">
        <ele>2147.2</ele>
        <time>2013-01-08T13:01:12Z</time>
      </trkpt>
      <trkpt lat="42.721055" lon="1.976570">
        <ele>2144.8</ele>
        <time>2013-01-08T13:01:25Z</time>
      </trkpt>
      <trkpt lat="42.721147" lon="1.976605">
        <ele>2142.4</ele>
        <time>2013-01-08T13:01:45Z</time>
      </trkpt>
      <trkpt lat="42.721228" lon="1.976668">
        <ele>2140.5</ele>
        <time>2013-01-08T13:01:57Z</time>
      </trkpt>
      <trkpt lat="42.721316" lon="1.976688">
        <ele>2137.6</ele>
        <time>2013-01-08T13:02:51Z</time>
      </trkpt>
      <trkpt lat="42.721407" lon="1.976724">
        <ele>2135.2</ele>
        <time>2013-01-08T13:03:05Z</time>
      </trkpt>
      <trkpt lat="42.721501" lon="1.976736">
        <ele>2131.9</ele>
        <time>2013-01-08T13:03:16Z</time>
      </trkpt>
      <trkpt lat="42.721555" lon="1.976752">
        <ele>2129.5</ele>
        <time>2013-01-08T13:03:36Z</time>
      </trkpt>
      <trkpt lat="42.721616" lon="1.976752">
        <ele>2129.0</ele>
        <time>2013-01-08T13:07:30Z</time>
      </trkpt>
      <trkpt lat="42.721673" lon="1.976856">
        <ele>2128.0</ele>
        <time>2013-01-08T13:07:41Z</time>
      </trkpt>
      <trkpt lat="42.721681" lon="1.976941">
        <ele>2126.1</ele>
        <time>2013-01-08T13:08:58Z</time>
      </trkpt>
      <trkpt lat="42.721740" lon="1.977006">
        <ele>2125.6</ele>
        <time>2013-01-08T13:10:58Z</time>
      </trkpt>
      <trkpt lat="42.721821" lon="1.977089">
        <ele>2123.7</ele>
        <time>2013-01-08T13:11:38Z</time>
      </trkpt>
      <trkpt lat="42.721878" lon="1.977200">
        <ele>2122.7</ele>
        <time>2013-01-08T13:11:47Z</time>
      </trkpt>
      <trkpt lat="42.721939" lon="1.977298">
        <ele>2121.8</ele>
        <time>2013-01-08T13:11:57Z</time>
      </trkpt>
      <trkpt lat="42.721994" lon="1.977400">
        <ele>2119.8</ele>
        <time>2013-01-08T13:12:06Z</time>
      </trkpt>
      <trkpt lat="42.722055" lon="1.977497">
        <ele>2118.4</ele>
        <time>2013-01-08T13:12:15Z</time>
      </trkpt>
      <trkpt lat="42.722111" lon="1.977592">
        <ele>2117.4</ele>
        <time>2013-01-08T13:12:24Z</time>
      </trkpt>
      <trkpt lat="42.722156" lon="1.977706">
        <ele>2116.5</ele>
        <time>2013-01-08T13:12:33Z</time>
      </trkpt>
      <trkpt lat="42.722219" lon="1.977804">
        <ele>2115.5</ele>
        <time>2013-01-08T13:12:42Z</time>
      </trkpt>
      <trkpt lat="42.722290" lon="1.977873">
        <ele>2113.1</ele>
        <time>2013-01-08T13:12:52Z</time>
      </trkpt>
      <trkpt lat="42.722335" lon="1.977975">
        <ele>2108.8</ele>
        <time>2013-01-08T13:13:01Z</time>
      </trkpt>
      <trkpt lat="42.722393" lon="1.978069">
        <ele>2110.7</ele>
        <time>2013-01-08T13:13:11Z</time>
      </trkpt>
      <trkpt lat="42.722505" lon="1.978180">
        <ele>2082.2</ele>
        <time>2013-01-08T13:13:23Z</time>
      </trkpt>
      <trkpt lat="42.722614" lon="1.978313">
        <ele>2081.4</ele>
        <time>2013-01-08T13:13:33Z</time>
      </trkpt>
      <trkpt lat="42.722767" lon="1.978417">
        <ele>2079.0</ele>
        <time>2013-01-08T13:13:43Z</time>
      </trkpt>
      <trkpt lat="42.722925" lon="1.978528">
        <ele>2077.1</ele>
        <time>2013-01-08T13:13:53Z</time>
      </trkpt>
      <trkpt lat="42.723110" lon="1.978484">
        <ele>2073.3</ele>
        <time>2013-01-08T13:14:03Z</time>
      </trkpt>
      <trkpt lat="42.723338" lon="1.978541">
        <ele>2070.3</ele>
        <time>2013-01-08T13:17:05Z</time>
      </trkpt>
      <trkpt lat="42.723508" lon="1.978483">
        <ele>2064.9</ele>
        <time>2013-01-08T13:20:59Z</time>
      </trkpt>
      <trkpt lat="42.723677" lon="1.978426">
        <ele>2059.7</ele>
        <time>2013-01-08T13:21:11Z</time>
      </trkpt>
      <trkpt lat="42.723855" lon="1.978358">
        <ele>2054.2</ele>
        <time>2013-01-08T13:21:23Z</time>
      </trkpt>
      <trkpt lat="42.723964" lon="1.978313">
        <ele>2050.4</ele>
        <time>2013-01-08T13:21:38Z</time>
      </trkpt>
      <trkpt lat="42.724117" lon="1.978239">
        <ele>2044.1</ele>
        <time>2013-01-08T13:21:53Z</time>
      </trkpt>
      <trkpt lat="42.724188" lon="1.978157">
        <ele>2039.5</ele>
        <time>2013-01-08T13:22:13Z</time>
      </trkpt>
      <trkpt lat="42.724253" lon="1.978046">
        <ele>2033.7</ele>
        <time>2013-01-08T13:22:34Z</time>
      </trkpt>
      <trkpt lat="42.724335" lon="1.977987">
        <ele>2028.5</ele>
        <time>2013-01-08T13:22:49Z</time>
      </trkpt>
      <trkpt lat="42.724451" lon="1.977885">
        <ele>2053.5</ele>
        <time>2013-01-08T13:23:05Z</time>
      </trkpt>
      <trkpt lat="42.724539" lon="1.977828">
        <ele>2050.1</ele>
        <time>2013-01-08T13:23:23Z</time>
      </trkpt>
      <trkpt lat="42.724625" lon="1.977832">
        <ele>2047.8</ele>
        <time>2013-01-08T13:23:48Z</time>
      </trkpt>
      <trkpt lat="42.724720" lon="1.977834">
        <ele>2045.8</ele>
        <time>2013-01-08T13:24:22Z</time>
      </trkpt>
      <trkpt lat="42.724819" lon="1.977853">
        <ele>2042.9</ele>
        <time>2013-01-08T13:24:33Z</time>
      </trkpt>
      <trkpt lat="42.724922" lon="1.977851">
        <ele>2041.0</ele>
        <time>2013-01-08T13:24:44Z</time>
      </trkpt>
      <trkpt lat="42.725008" lon="1.977856">
        <ele>2038.6</ele>
        <time>2013-01-08T13:24:55Z</time>
      </trkpt>
      <trkpt lat="42.725089" lon="1.977856">
        <ele>2035.2</ele>
        <time>2013-01-08T13:25:26Z</time>
      </trkpt>
      <trkpt lat="42.725193" lon="1.977894">
        <ele>2031.9</ele>
        <time>2013-01-08T13:25:36Z</time>
      </trkpt>
      <trkpt lat="42.725271" lon="1.977968">
        <ele>2030.0</ele>
        <time>2013-01-08T13:25:47Z</time>
      </trkpt>
      <trkpt lat="42.725344" lon="1.978048">
        <ele>2029.0</ele>
        <time>2013-01-08T13:25:57Z</time>
      </trkpt>
      <trkpt lat="42.725401" lon="1.978153">
        <ele>2024.2</ele>
        <time>2013-01-08T13:26:07Z</time>
      </trkpt>
      <trkpt lat="42.725456" lon="1.978249">
        <ele>2028.0</ele>
        <time>2013-01-08T13:26:21Z</time>
      </trkpt>
      <trkpt lat="42.725512" lon="1.978362">
        <ele>2026.1</ele>
        <time>2013-01-08T13:26:32Z</time>
      </trkpt>
      <trkpt lat="42.725587" lon="1.978467">
        <ele>2024.7</ele>
        <time>2013-01-08T13:26:49Z</time>
      </trkpt>
      <trkpt lat="42.725648" lon="1.978585">
        <ele>2022.3</ele>
        <time>2013-01-08T13:27:07Z</time>
      </trkpt>
      <trkpt lat="42.725690" lon="1.978697">
        <ele>2021.3</ele>
        <time>2013-01-08T13:27:19Z</time>
      </trkpt>
      <trkpt lat="42.725759" lon="1.978777">
        <ele>2018.9</ele>
        <time>2013-01-08T13:27:31Z</time>
      </trkpt>
      <trkpt lat="42.725855" lon="1.978840">
        <ele>2017.5</ele>
        <time>2013-01-08T13:27:41Z</time>
      </trkpt>
      <trkpt lat="42.725942" lon="1.978850">
        <ele>2012.7</ele>
        <time>2013-01-08T13:28:04Z</time>
      </trkpt>
      <trkpt lat="42.726029" lon="1.978907">
        <ele>2010.2</ele>
        <time>2013-01-08T13:28:18Z</time>
      </trkpt>
      <trkpt lat="42.726095" lon="1.978986">
        <ele>2007.8</ele>
        <time>2013-01-08T13:28:32Z</time>
      </trkpt>
      <trkpt lat="42.726164" lon="1.979024">
        <ele>2005.0</ele>
        <time>2013-01-08T13:29:39Z</time>
      </trkpt>
      <trkpt lat="42.726213" lon="1.979096">
        <ele>2002.1</ele>
        <time>2013-01-08T13:30:01Z</time>
      </trkpt>
      <trkpt lat="42.726306" lon="1.979118">
        <ele>1999.2</ele>
        <time>2013-01-08T13:30:12Z</time>
      </trkpt>
      <trkpt lat="42.726392" lon="1.979171">
        <ele>1995.8</ele>
        <time>2013-01-08T13:30:23Z</time>
      </trkpt>
      <trkpt lat="42.726455" lon="1.979256">
        <ele>1993.9</ele>
        <time>2013-01-08T13:30:33Z</time>
      </trkpt>
      <trkpt lat="42.726531" lon="1.979324">
        <ele>1991.0</ele>
        <time>2013-01-08T13:30:45Z</time>
      </trkpt>
      <trkpt lat="42.726616" lon="1.979386">
        <ele>1988.6</ele>
        <time>2013-01-08T13:30:56Z</time>
      </trkpt>
      <trkpt lat="42.726713" lon="1.979433">
        <ele>1987.2</ele>
        <time>2013-01-08T13:31:07Z</time>
      </trkpt>
      <trkpt lat="42.726804" lon="1.979439">
        <ele>1985.3</ele>
        <time>2013-01-08T13:31:18Z</time>
      </trkpt>
      <trkpt lat="42.726894" lon="1.979462">
        <ele>1983.3</ele>
        <time>2013-01-08T13:31:29Z</time>
      </trkpt>
      <trkpt lat="42.726990" lon="1.979507">
        <ele>1982.4</ele>
        <time>2013-01-08T13:31:41Z</time>
      </trkpt>
      <trkpt lat="42.727083" lon="1.979546">
        <ele>1980.4</ele>
        <time>2013-01-08T13:31:53Z</time>
      </trkpt>
      <trkpt lat="42.727177" lon="1.979573">
        <ele>1978.5</ele>
        <time>2013-01-08T13:32:06Z</time>
      </trkpt>
      <trkpt lat="42.727270" lon="1.979600">
        <ele>1978.1</ele>
        <time>2013-01-08T13:32:16Z</time>
      </trkpt>
      <trkpt lat="42.727358" lon="1.979610">
        <ele>1976.6</ele>
        <time>2013-01-08T13:32:27Z</time>
      </trkpt>
      <trkpt lat="42.727446" lon="1.979610">
        <ele>1974.7</ele>
        <time>2013-01-08T13:32:37Z</time>
      </trkpt>
      <trkpt lat="42.727537" lon="1.979639">
        <ele>1973.7</ele>
        <time>2013-01-08T13:32:48Z</time>
      </trkpt>
      <trkpt lat="42.727632" lon="1.979663">
        <ele>1972.3</ele>
        <time>2013-01-08T13:32:59Z</time>
      </trkpt>
      <trkpt lat="42.727730" lon="1.979699">
        <ele>1971.3</ele>
        <time>2013-01-08T13:33:10Z</time>
      </trkpt>
      <trkpt lat="42.727810" lon="1.979744">
        <ele>1970.8</ele>
        <time>2013-01-08T13:33:21Z</time>
      </trkpt>
      <trkpt lat="42.727901" lon="1.979818">
        <ele>1970.8</ele>
        <time>2013-01-08T13:33:33Z</time>
      </trkpt>
      <trkpt lat="42.727965" lon="1.979871">
        <ele>1970.4</ele>
        <time>2013-01-08T13:33:43Z</time>
      </trkpt>
      <trkpt lat="42.728051" lon="1.979926">
        <ele>1968.9</ele>
        <time>2013-01-08T13:33:55Z</time>
      </trkpt>
      <trkpt lat="42.728116" lon="1.979997">
        <ele>1967.5</ele>
        <time>2013-01-08T13:34:07Z</time>
      </trkpt>
      <trkpt lat="42.728195" lon="1.980044">
        <ele>1965.1</ele>
        <time>2013-01-08T13:34:18Z</time>
      </trkpt>
      <trkpt lat="42.728273" lon="1.979986">
        <ele>1961.2</ele>
        <time>2013-01-08T13:34:32Z</time>
      </trkpt>
      <trkpt lat="42.728369" lon="1.979927">
        <ele>1956.4</ele>
        <time>2013-01-08T13:34:46Z</time>
      </trkpt>
      <trkpt lat="42.728460" lon="1.979888">
        <ele>1952.6</ele>
        <time>2013-01-08T13:35:00Z</time>
      </trkpt>
      <trkpt lat="42.728569" lon="1.979893">
        <ele>1947.8</ele>
        <time>2013-01-08T13:35:21Z</time>
      </trkpt>
      <trkpt lat="42.728627" lon="1.979868">
        <ele>1943.9</ele>
        <time>2013-01-08T13:36:15Z</time>
      </trkpt>
      <trkpt lat="42.728719" lon="1.979886">
        <ele>1939.6</ele>
        <time>2013-01-08T13:36:30Z</time>
      </trkpt>
      <trkpt lat="42.728800" lon="1.979842">
        <ele>1934.8</ele>
        <time>2013-01-08T13:36:43Z</time>
      </trkpt>
      <trkpt lat="42.728895" lon="1.979791">
        <ele>1930.5</ele>
        <time>2013-01-08T13:36:58Z</time>
      </trkpt>
      <trkpt lat="42.728965" lon="1.979768">
        <ele>1926.1</ele>
        <time>2013-01-08T13:37:10Z</time>
      </trkpt>
      <trkpt lat="42.729054" lon="1.979783">
        <ele>1922.8</ele>
        <time>2013-01-08T13:37:24Z</time>
      </trkpt>
      <trkpt lat="42.729157" lon="1.979741">
        <ele>1917.5</ele>
        <time>2013-01-08T13:37:43Z</time>
      </trkpt>
      <trkpt lat="42.729254" lon="1.979720">
        <ele>1913.2</ele>
        <time>2013-01-08T13:37:58Z</time>
      </trkpt>
      <trkpt lat="42.729325" lon="1.979670">
        <ele>1908.8</ele>
        <time>2013-01-08T13:38:11Z</time>
      </trkpt>
      <trkpt lat="42.729411" lon="1.979612">
        <ele>1904.5</ele>
        <time>2013-01-08T13:38:25Z</time>
      </trkpt>
      <trkpt lat="42.729503" lon="1.979577">
        <ele>1900.7</ele>
        <time>2013-01-08T13:38:38Z</time>
      </trkpt>
      <trkpt lat="42.729588" lon="1.979536">
        <ele>1895.9</ele>
        <time>2013-01-08T13:38:51Z</time>
      </trkpt>
      <trkpt lat="42.729653" lon="1.979482">
        <ele>1891.5</ele>
        <time>2013-01-08T13:39:06Z</time>
      </trkpt>
      <trkpt lat="42.729717" lon="1.979421">
        <ele>1886.7</ele>
        <time>2013-01-08T13:39:20Z</time>
      </trkpt>
      <trkpt lat="42.729771" lon="1.979391">
        <ele>1882.9</ele>
        <time>2013-01-08T13:39:32Z</time>
      </trkpt>
      <trkpt lat="42.729865" lon="1.979329">
        <ele>1877.1</ele>
        <time>2013-01-08T13:39:47Z</time>
      </trkpt>
      <trkpt lat="42.729945" lon="1.979230">
        <ele>1870.9</ele>
        <time>2013-01-08T13:40:04Z</time>
      </trkpt>
      <trkpt lat="42.729999" lon="1.979156">
        <ele>1866.5</ele>
        <time>2013-01-08T13:40:37Z</time>
      </trkpt>
      <trkpt lat="42.730039" lon="1.979040">
        <ele>1861.2</ele>
        <time>2013-01-08T13:40:52Z</time>
      </trkpt>
      <trkpt lat="42.730107" lon="1.978952">
        <ele>1856.0</ele>
        <time>2013-01-08T13:41:08Z</time>
      </trkpt>
      <trkpt lat="42.730170" lon="1.978842">
        <ele>1850.7</ele>
        <time>2013-01-08T13:41:24Z</time>
      </trkpt>
      <trkpt lat="42.730201" lon="1.978742">
        <ele>1845.9</ele>
        <time>2013-01-08T13:41:39Z</time>
      </trkpt>
      <trkpt lat="42.730229" lon="1.978636">
        <ele>1842.5</ele>
        <time>2013-01-08T13:41:53Z</time>
      </trkpt>
      <trkpt lat="42.730261" lon="1.978500">
        <ele>1837.7</ele>
        <time>2013-01-08T13:42:08Z</time>
      </trkpt>
      <trkpt lat="42.730263" lon="1.978389">
        <ele>1834.8</ele>
        <time>2013-01-08T13:42:21Z</time>
      </trkpt>
      <trkpt lat="42.730258" lon="1.978256">
        <ele>1831.4</ele>
        <time>2013-01-08T13:42:35Z</time>
      </trkpt>
      <trkpt lat="42.730251" lon="1.978151">
        <ele>1829.5</ele>
        <time>2013-01-08T13:42:47Z</time>
      </trkpt>
      <trkpt lat="42.730261" lon="1.978014">
        <ele>1827.1</ele>
        <time>2013-01-08T13:43:00Z</time>
      </trkpt>
      <trkpt lat="42.730231" lon="1.977888">
        <ele>1825.7</ele>
        <time>2013-01-08T13:43:15Z</time>
      </trkpt>
      <trkpt lat="42.730214" lon="1.977766">
        <ele>1823.8</ele>
        <time>2013-01-08T13:43:29Z</time>
      </trkpt>
      <trkpt lat="42.730286" lon="1.977599">
        <ele>1821.8</ele>
        <time>2013-01-08T13:43:48Z</time>
      </trkpt>
      <trkpt lat="42.730304" lon="1.977495">
        <ele>1818.5</ele>
        <time>2013-01-08T13:44:01Z</time>
      </trkpt>
      <trkpt lat="42.730322" lon="1.977357">
        <ele>1815.1</ele>
        <time>2013-01-08T13:44:15Z</time>
      </trkpt>
      <trkpt lat="42.730341" lon="1.977242">
        <ele>1813.7</ele>
        <time>2013-01-08T13:44:29Z</time>
      </trkpt>
      <trkpt lat="42.730382" lon="1.977143">
        <ele>1811.7</ele>
        <time>2013-01-08T13:44:41Z</time>
      </trkpt>
      <trkpt lat="42.730416" lon="1.977030">
        <ele>1809.3</ele>
        <time>2013-01-08T13:45:19Z</time>
      </trkpt>
      <trkpt lat="42.730436" lon="1.976930">
        <ele>1807.4</ele>
        <time>2013-01-08T13:45:31Z</time>
      </trkpt>
      <trkpt lat="42.730491" lon="1.976814">
        <ele>1805.0</ele>
        <time>2013-01-08T13:45:42Z</time>
      </trkpt>
      <trkpt lat="42.730573" lon="1.976732">
        <ele>1803.1</ele>
        <time>2013-01-08T13:45:53Z</time>
      </trkpt>
      <trkpt lat="42.730621" lon="1.976608">
        <ele>1802.6</ele>
        <time>2013-01-08T13:46:04Z</time>
      </trkpt>
      <trkpt lat="42.730644" lon="1.976469">
        <ele>1802.1</ele>
        <time>2013-01-08T13:46:19Z</time>
      </trkpt>
      <trkpt lat="42.730617" lon="1.976339">
        <ele>1802.6</ele>
        <time>2013-01-08T13:46:31Z</time>
      </trkpt>
      <trkpt lat="42.730573" lon="1.976204">
        <ele>1802.6</ele>
        <time>2013-01-08T13:46:42Z</time>
      </trkpt>
      <trkpt lat="42.730543" lon="1.976084">
        <ele>1802.1</ele>
        <time>2013-01-08T13:46:53Z</time>
      </trkpt>
      <trkpt lat="42.730512" lon="1.975960">
        <ele>1802.1</ele>
        <time>2013-01-08T13:47:04Z</time>
      </trkpt>
      <trkpt lat="42.730481" lon="1.975834">
        <ele>1802.1</ele>
        <time>2013-01-08T13:47:15Z</time>
      </trkpt>
      <trkpt lat="42.730449" lon="1.975709">
        <ele>1802.1</ele>
        <time>2013-01-08T13:47:26Z</time>
      </trkpt>
      <trkpt lat="42.730440" lon="1.975587">
        <ele>1801.7</ele>
        <time>2013-01-08T13:47:37Z</time>
      </trkpt>
      <trkpt lat="42.730445" lon="1.975450">
        <ele>1801.7</ele>
        <time>2013-01-08T13:47:48Z</time>
      </trkpt>
      <trkpt lat="42.730441" lon="1.975310">
        <ele>1801.2</ele>
        <time>2013-01-08T13:48:00Z</time>
      </trkpt>
      <trkpt lat="42.730421" lon="1.975161">
        <ele>1800.7</ele>
        <time>2013-01-08T13:48:11Z</time>
      </trkpt>
      <trkpt lat="42.730433" lon="1.975025">
        <ele>1800.7</ele>
        <time>2013-01-08T13:48:23Z</time>
      </trkpt>
      <trkpt lat="42.730443" lon="1.974893">
        <ele>1800.2</ele>
        <time>2013-01-08T13:48:34Z</time>
      </trkpt>
      <trkpt lat="42.730440" lon="1.974759">
        <ele>1846.4</ele>
        <time>2013-01-08T13:48:34Z</time>
      </trkpt>
      <trkpt lat="42.730429" lon="1.974603">
        <ele>1845.9</ele>
        <time>2013-01-08T13:48:34Z</time>
      </trkpt>
      <trkpt lat="42.730387" lon="1.974451">
        <ele>1843.2</ele>
        <time>2013-01-08T13:48:34Z</time>
      </trkpt>
      <trkpt lat="42.730356" lon="1.974262">
        <ele>1841.6</ele>
        <time>2013-01-08T13:48:34Z</time>
      </trkpt>
      <trkpt lat="42.730356" lon="1.974139">
        <ele>1841.8</ele>
        <time>2013-01-08T13:48:34Z</time>
      </trkpt>
      <trkpt lat="42.730301" lon="1.973935">
        <ele>1838.2</ele>
        <time>2013-01-08T13:48:34Z</time>
      </trkpt>
      <trkpt lat="42.730238" lon="1.973698">
        <ele>1834.2</ele>
        <time>2013-01-08T13:48:34Z</time>
      </trkpt>
      <trkpt lat="42.730175" lon="1.973513">
        <ele>1830.5</ele>
        <time>2013-01-08T13:48:34Z</time>
      </trkpt>
      <trkpt lat="42.730109" lon="1.973333">
        <ele>1826.6</ele>
        <time>2013-01-08T13:48:34Z</time>
      </trkpt>
      <trkpt lat="42.730050" lon="1.973135">
        <ele>1822.5</ele>
        <time>2013-01-08T13:48:34Z</time>
      </trkpt>
      <trkpt lat="42.729995" lon="1.972945">
        <ele>1818.9</ele>
        <time>2013-01-08T13:48:34Z</time>
      </trkpt>
      <trkpt lat="42.729967" lon="1.972794">
        <ele>1817.3</ele>
        <time>2013-01-08T13:48:34Z</time>
      </trkpt>
      <trkpt lat="42.729919" lon="1.972547">
        <ele>1814.4</ele>
        <time>2013-01-08T13:48:34Z</time>
      </trkpt>
      <trkpt lat="42.729887" lon="1.972344">
        <ele>1811.9</ele>
        <time>2013-01-08T13:48:34Z</time>
      </trkpt>
      <trkpt lat="42.729855" lon="1.972107">
        <ele>1809.0</ele>
        <time>2013-01-08T13:48:34Z</time>
      </trkpt>
      <trkpt lat="42.729841" lon="1.971818">
        <ele>1806.7</ele>
        <time>2013-01-08T13:48:34Z</time>
      </trkpt>
      <trkpt lat="42.729873" lon="1.971676">
        <ele>1807.2</ele>
        <time>2013-01-08T13:48:34Z</time>
      </trkpt>
      <trkpt lat="42.729883" lon="1.971581">
        <ele>1808.2</ele>
        <time>2013-01-08T13:48:34Z</time>
      </trkpt>
      <trkpt lat="42.729789" lon="1.971468">
        <ele>1804.6</ele>
        <time>2013-01-08T13:48:34Z</time>
      </trkpt>
      <trkpt lat="42.729720" lon="1.971302">
        <ele>1802.4</ele>
        <time>2013-01-08T13:48:34Z</time>
      </trkpt>
      <trkpt lat="42.729657" lon="1.971131">
        <ele>1800.6</ele>
        <time>2013-01-08T13:48:34Z</time>
      </trkpt>
      <trkpt lat="42.729608" lon="1.970975">
        <ele>1799.3</ele>
        <time>2013-01-08T13:48:34Z</time>
      </trkpt>
      <trkpt lat="42.729451" lon="1.970610">
        <ele>1795.3</ele>
        <time>2013-01-08T13:48:34Z</time>
      </trkpt>
      <trkpt lat="42.729294" lon="1.970196">
        <ele>1792.7</ele>
        <time>2013-01-08T13:48:34Z</time>
      </trkpt>
      <trkpt lat="42.729116" lon="1.969746">
        <ele>1792.0</ele>
        <time>2013-01-08T13:48:34Z</time>
      </trkpt>
      <trkpt lat="42.728951" lon="1.969397">
        <ele>1789.8</ele>
        <time>2013-01-08T13:48:34Z</time>
      </trkpt>
      <trkpt lat="42.728768" lon="1.969001">
        <ele>1784.5</ele>
        <time>2013-01-08T13:48:34Z</time>
      </trkpt>
      <trkpt lat="42.728616" lon="1.968598">
        <ele>1779.4</ele>
        <time>2013-01-08T13:48:34Z</time>
      </trkpt>
      <trkpt lat="42.728434" lon="1.968054">
        <ele>1773.9</ele>
        <time>2013-01-08T13:48:34Z</time>
      </trkpt>
      <trkpt lat="42.728286" lon="1.967664">
        <ele>1769.6</ele>
        <time>2013-01-08T13:48:34Z</time>
      </trkpt>
      <trkpt lat="42.728142" lon="1.967338">
        <ele>1764.1</ele>
        <time>2013-01-08T13:48:34Z</time>
      </trkpt>
      <trkpt lat="42.728034" lon="1.967019">
        <ele>1759.7</ele>
        <time>2013-01-08T13:48:34Z</time>
      </trkpt>
      <trkpt lat="42.727951" lon="1.966817">
        <ele>1756.5</ele>
        <time>2013-01-08T13:48:34Z</time>
      </trkpt>
      <trkpt lat="42.727890" lon="1.966687">
        <ele>1754.0</ele>
        <time>2013-01-08T13:48:34Z</time>
      </trkpt>
      <trkpt lat="42.727834" lon="1.966445">
        <ele>1752.9</ele>
        <time>2013-01-08T13:48:34Z</time>
      </trkpt>
      <trkpt lat="42.727773" lon="1.966255">
        <ele>1751.3</ele>
        <time>2013-01-08T13:48:34Z</time>
      </trkpt>
      <trkpt lat="42.727686" lon="1.966042">
        <ele>1748.8</ele>
        <time>2013-01-08T13:48:34Z</time>
      </trkpt>
      <trkpt lat="42.727586" lon="1.965747">
        <ele>1745.8</ele>
        <time>2013-01-08T13:48:34Z</time>
      </trkpt>
      <trkpt lat="42.727477" lon="1.965498">
        <ele>1740.1</ele>
        <time>2013-01-08T13:48:34Z</time>
      </trkpt>
      <trkpt lat="42.727417" lon="1.965356">
        <ele>1736.9</ele>
        <time>2013-01-08T13:48:34Z</time>
      </trkpt>
      <trkpt lat="42.727364" lon="1.965273">
        <ele>1734.3</ele>
        <time>2013-01-08T13:48:34Z</time>
      </trkpt>
      <trkpt lat="42.727247" lon="1.965167">
        <ele>1728.5</ele>
        <time>2013-01-08T13:48:34Z</time>
      </trkpt>
      <trkpt lat="42.727216" lon="1.965065">
        <ele>1726.8</ele>
        <time>2013-01-08T13:48:34Z</time>
      </trkpt>
      <trkpt lat="42.727198" lon="1.964973">
        <ele>1725.6</ele>
        <time>2013-01-08T13:48:34Z</time>
      </trkpt>
      <trkpt lat="42.727182" lon="1.964884">
        <ele>1723.6</ele>
        <time>2013-01-08T13:48:34Z</time>
      </trkpt>
      <trkpt lat="42.727179" lon="1.964811">
        <ele>1722.4</ele>
        <time>2013-01-08T13:48:34Z</time>
      </trkpt>
      <trkpt lat="42.727198" lon="1.964761">
        <ele>1722.6</ele>
        <time>2013-01-08T13:48:34Z</time>
      </trkpt>
    </trkseg>
  </trk>
</gpx>

